<?xml version="1.0" encoding="UTF-8" standalone="no" ?>
<gpx xmlns="http://www.topografix.com/GPX/1/1" xmlns:xsi="http://www.w3.org/2001/XMLSchema-instance" xsi:schemaLocation="http://www.topografix.com/GPX/1/1 http://www.topografix.com/GPX/1/1/gpx.xsd" version="1.1" creator="VisuGPX - https://www.visugpx.com">
  <metadata>
    <name>Circuit des papeteries Belle ile en terre</name>
    <desc><![CDATA[Circuit des papeteries]]></desc>
  </metadata>
  <trk>
    <name><![CDATA[BELLE ISLE EN TERRE]]></name>
    <trkseg>
      <trkpt lat="48.54584" lon="-3.39623">
        <ele>115.3</ele>
        <time>2014-03-10T13:00:23Z</time>
      </trkpt>
      <trkpt lat="48.54584" lon="-3.39624">
        <ele>115.3</ele>
        <time>2014-03-10T13:00:24Z</time>
      </trkpt>
      <trkpt lat="48.54594" lon="-3.39617">
        <ele>116.7</ele>
        <time>2014-03-10T13:03:12Z</time>
      </trkpt>
      <trkpt lat="48.54594" lon="-3.396">
        <ele>116.9</ele>
        <time>2014-03-10T13:03:27Z</time>
      </trkpt>
      <trkpt lat="48.54598" lon="-3.39587">
        <ele>116.3</ele>
        <time>2014-03-10T13:03:51Z</time>
      </trkpt>
      <trkpt lat="48.54608" lon="-3.39584">
        <ele>116.2</ele>
        <time>2014-03-10T13:04:04Z</time>
      </trkpt>
      <trkpt lat="48.54617" lon="-3.39583">
        <ele>115.9</ele>
        <time>2014-03-10T13:04:13Z</time>
      </trkpt>
      <trkpt lat="48.54622" lon="-3.39594">
        <ele>115.5</ele>
        <time>2014-03-10T13:04:27Z</time>
      </trkpt>
      <trkpt lat="48.54631" lon="-3.39604">
        <ele>115.3</ele>
        <time>2014-03-10T13:04:35Z</time>
      </trkpt>
      <trkpt lat="48.54634" lon="-3.39618">
        <ele>115.7</ele>
        <time>2014-03-10T13:04:44Z</time>
      </trkpt>
      <trkpt lat="48.54639" lon="-3.39635">
        <ele>114.9</ele>
        <time>2014-03-10T13:04:56Z</time>
      </trkpt>
      <trkpt lat="48.54645" lon="-3.39652">
        <ele>114</ele>
        <time>2014-03-10T13:05:09Z</time>
      </trkpt>
      <trkpt lat="48.54652" lon="-3.39662">
        <ele>113.5</ele>
        <time>2014-03-10T13:05:19Z</time>
      </trkpt>
      <trkpt lat="48.54665" lon="-3.39669">
        <ele>113.7</ele>
        <time>2014-03-10T13:05:32Z</time>
      </trkpt>
      <trkpt lat="48.54674" lon="-3.39673">
        <ele>114.1</ele>
        <time>2014-03-10T13:05:41Z</time>
      </trkpt>
      <trkpt lat="48.54684" lon="-3.39676">
        <ele>114.7</ele>
        <time>2014-03-10T13:05:49Z</time>
      </trkpt>
      <trkpt lat="48.54694" lon="-3.39679">
        <ele>115.3</ele>
        <time>2014-03-10T13:05:57Z</time>
      </trkpt>
      <trkpt lat="48.54704" lon="-3.39683">
        <ele>115.3</ele>
        <time>2014-03-10T13:06:05Z</time>
      </trkpt>
      <trkpt lat="48.54717" lon="-3.39686">
        <ele>114.9</ele>
        <time>2014-03-10T13:06:14Z</time>
      </trkpt>
      <trkpt lat="48.54727" lon="-3.39688">
        <ele>115</ele>
        <time>2014-03-10T13:06:22Z</time>
      </trkpt>
      <trkpt lat="48.54737" lon="-3.39688">
        <ele>116.7</ele>
        <time>2014-03-10T13:06:30Z</time>
      </trkpt>
      <trkpt lat="48.54747" lon="-3.39688">
        <ele>116.2</ele>
        <time>2014-03-10T13:06:37Z</time>
      </trkpt>
      <trkpt lat="48.54756" lon="-3.39683">
        <ele>115.5</ele>
        <time>2014-03-10T13:06:45Z</time>
      </trkpt>
      <trkpt lat="48.54766" lon="-3.39675">
        <ele>114.4</ele>
        <time>2014-03-10T13:06:55Z</time>
      </trkpt>
      <trkpt lat="48.54778" lon="-3.39669">
        <ele>115.1</ele>
        <time>2014-03-10T13:07:10Z</time>
      </trkpt>
      <trkpt lat="48.54788" lon="-3.39669">
        <ele>115.6</ele>
        <time>2014-03-10T13:07:17Z</time>
      </trkpt>
      <trkpt lat="48.54797" lon="-3.3967">
        <ele>115.9</ele>
        <time>2014-03-10T13:07:25Z</time>
      </trkpt>
      <trkpt lat="48.54807" lon="-3.3967">
        <ele>116</ele>
        <time>2014-03-10T13:07:33Z</time>
      </trkpt>
      <trkpt lat="48.54816" lon="-3.39669">
        <ele>115.8</ele>
        <time>2014-03-10T13:07:41Z</time>
      </trkpt>
      <trkpt lat="48.54829" lon="-3.39667">
        <ele>115.4</ele>
        <time>2014-03-10T13:07:52Z</time>
      </trkpt>
      <trkpt lat="48.54839" lon="-3.39664">
        <ele>115.4</ele>
        <time>2014-03-10T13:08:00Z</time>
      </trkpt>
      <trkpt lat="48.54849" lon="-3.39662">
        <ele>116.3</ele>
        <time>2014-03-10T13:08:08Z</time>
      </trkpt>
      <trkpt lat="48.54858" lon="-3.3966">
        <ele>116.2</ele>
        <time>2014-03-10T13:08:15Z</time>
      </trkpt>
      <trkpt lat="48.5487" lon="-3.39659">
        <ele>116.1</ele>
        <time>2014-03-10T13:08:25Z</time>
      </trkpt>
      <trkpt lat="48.54877" lon="-3.39669">
        <ele>116</ele>
        <time>2014-03-10T13:08:34Z</time>
      </trkpt>
      <trkpt lat="48.54882" lon="-3.39681">
        <ele>116.1</ele>
        <time>2014-03-10T13:08:42Z</time>
      </trkpt>
      <trkpt lat="48.54887" lon="-3.39699">
        <ele>115.7</ele>
        <time>2014-03-10T13:08:53Z</time>
      </trkpt>
      <trkpt lat="48.54895" lon="-3.39711">
        <ele>115.7</ele>
        <time>2014-03-10T13:09:06Z</time>
      </trkpt>
      <trkpt lat="48.54906" lon="-3.39699">
        <ele>115.5</ele>
        <time>2014-03-10T13:10:28Z</time>
      </trkpt>
      <trkpt lat="48.54919" lon="-3.39694">
        <ele>114.9</ele>
        <time>2014-03-10T13:11:14Z</time>
      </trkpt>
      <trkpt lat="48.54926" lon="-3.39686">
        <ele>114.7</ele>
        <time>2014-03-10T13:11:22Z</time>
      </trkpt>
      <trkpt lat="48.54935" lon="-3.39675">
        <ele>114.9</ele>
        <time>2014-03-10T13:11:35Z</time>
      </trkpt>
      <trkpt lat="48.54946" lon="-3.39665">
        <ele>114.8</ele>
        <time>2014-03-10T13:11:48Z</time>
      </trkpt>
      <trkpt lat="48.54956" lon="-3.39662">
        <ele>113.1</ele>
        <time>2014-03-10T13:11:56Z</time>
      </trkpt>
      <trkpt lat="48.54964" lon="-3.39656">
        <ele>115</ele>
        <time>2014-03-10T13:12:05Z</time>
      </trkpt>
      <trkpt lat="48.54974" lon="-3.39646">
        <ele>114.7</ele>
        <time>2014-03-10T13:12:16Z</time>
      </trkpt>
      <trkpt lat="48.54983" lon="-3.39635">
        <ele>115.5</ele>
        <time>2014-03-10T13:12:30Z</time>
      </trkpt>
      <trkpt lat="48.54997" lon="-3.39623">
        <ele>114.6</ele>
        <time>2014-03-10T13:12:43Z</time>
      </trkpt>
      <trkpt lat="48.5501" lon="-3.39622">
        <ele>114.3</ele>
        <time>2014-03-10T13:12:49Z</time>
      </trkpt>
      <trkpt lat="48.55022" lon="-3.39618">
        <ele>114.8</ele>
        <time>2014-03-10T13:12:58Z</time>
      </trkpt>
      <trkpt lat="48.55029" lon="-3.3961">
        <ele>115</ele>
        <time>2014-03-10T13:13:06Z</time>
      </trkpt>
      <trkpt lat="48.55038" lon="-3.39612">
        <ele>113.5</ele>
        <time>2014-03-10T13:13:13Z</time>
      </trkpt>
      <trkpt lat="48.55047" lon="-3.39612">
        <ele>114.3</ele>
        <time>2014-03-10T13:13:17Z</time>
      </trkpt>
      <trkpt lat="48.5506" lon="-3.39596">
        <ele>116.8</ele>
        <time>2014-03-10T13:13:30Z</time>
      </trkpt>
      <trkpt lat="48.55066" lon="-3.39582">
        <ele>116.8</ele>
        <time>2014-03-10T13:13:36Z</time>
      </trkpt>
      <trkpt lat="48.55072" lon="-3.39571">
        <ele>114.5</ele>
        <time>2014-03-10T13:13:44Z</time>
      </trkpt>
      <trkpt lat="48.55082" lon="-3.39555">
        <ele>117.9</ele>
        <time>2014-03-10T13:13:55Z</time>
      </trkpt>
      <trkpt lat="48.55086" lon="-3.39541">
        <ele>123.2</ele>
        <time>2014-03-10T13:14:11Z</time>
      </trkpt>
      <trkpt lat="48.55086" lon="-3.39527">
        <ele>125.1</ele>
        <time>2014-03-10T13:14:19Z</time>
      </trkpt>
      <trkpt lat="48.55095" lon="-3.39514">
        <ele>123.6</ele>
        <time>2014-03-10T13:14:33Z</time>
      </trkpt>
      <trkpt lat="48.55111" lon="-3.39522">
        <ele>124.9</ele>
        <time>2014-03-10T13:14:41Z</time>
      </trkpt>
      <trkpt lat="48.5512" lon="-3.39527">
        <ele>125.7</ele>
        <time>2014-03-10T13:14:48Z</time>
      </trkpt>
      <trkpt lat="48.55131" lon="-3.39523">
        <ele>124.5</ele>
        <time>2014-03-10T13:14:56Z</time>
      </trkpt>
      <trkpt lat="48.5514" lon="-3.39519">
        <ele>125</ele>
        <time>2014-03-10T13:15:05Z</time>
      </trkpt>
      <trkpt lat="48.55153" lon="-3.39526">
        <ele>125.2</ele>
        <time>2014-03-10T13:15:19Z</time>
      </trkpt>
      <trkpt lat="48.55162" lon="-3.39531">
        <ele>125.2</ele>
        <time>2014-03-10T13:15:30Z</time>
      </trkpt>
      <trkpt lat="48.55175" lon="-3.39534">
        <ele>125.3</ele>
        <time>2014-03-10T13:16:56Z</time>
      </trkpt>
      <trkpt lat="48.55172" lon="-3.39516">
        <ele>128.4</ele>
        <time>2014-03-10T13:17:30Z</time>
      </trkpt>
      <trkpt lat="48.55174" lon="-3.395">
        <ele>134.8</ele>
        <time>2014-03-10T13:17:58Z</time>
      </trkpt>
      <trkpt lat="48.55178" lon="-3.39485">
        <ele>138.6</ele>
        <time>2014-03-10T13:18:18Z</time>
      </trkpt>
      <trkpt lat="48.55184" lon="-3.39464">
        <ele>142.2</ele>
        <time>2014-03-10T13:20:16Z</time>
      </trkpt>
      <trkpt lat="48.55178" lon="-3.39475">
        <ele>141.4</ele>
        <time>2014-03-10T13:20:24Z</time>
      </trkpt>
      <trkpt lat="48.55172" lon="-3.39488">
        <ele>139.4</ele>
        <time>2014-03-10T13:20:35Z</time>
      </trkpt>
      <trkpt lat="48.55169" lon="-3.39502">
        <ele>136.5</ele>
        <time>2014-03-10T13:20:50Z</time>
      </trkpt>
      <trkpt lat="48.55167" lon="-3.39517">
        <ele>132.2</ele>
        <time>2014-03-10T13:21:05Z</time>
      </trkpt>
      <trkpt lat="48.55161" lon="-3.39528">
        <ele>130.2</ele>
        <time>2014-03-10T13:21:18Z</time>
      </trkpt>
      <trkpt lat="48.55164" lon="-3.39542">
        <ele>125.3</ele>
        <time>2014-03-10T13:21:35Z</time>
      </trkpt>
      <trkpt lat="48.5518" lon="-3.39548">
        <ele>124.9</ele>
        <time>2014-03-10T13:21:45Z</time>
      </trkpt>
      <trkpt lat="48.5519" lon="-3.39547">
        <ele>124</ele>
        <time>2014-03-10T13:21:52Z</time>
      </trkpt>
      <trkpt lat="48.552" lon="-3.39554">
        <ele>124.9</ele>
        <time>2014-03-10T13:22:00Z</time>
      </trkpt>
      <trkpt lat="48.55206" lon="-3.39564">
        <ele>126.3</ele>
        <time>2014-03-10T13:22:09Z</time>
      </trkpt>
      <trkpt lat="48.55219" lon="-3.39576">
        <ele>126.2</ele>
        <time>2014-03-10T13:22:20Z</time>
      </trkpt>
      <trkpt lat="48.55226" lon="-3.39588">
        <ele>126.1</ele>
        <time>2014-03-10T13:22:29Z</time>
      </trkpt>
      <trkpt lat="48.55234" lon="-3.39597">
        <ele>125.5</ele>
        <time>2014-03-10T13:22:37Z</time>
      </trkpt>
      <trkpt lat="48.55243" lon="-3.39604">
        <ele>125.8</ele>
        <time>2014-03-10T13:22:46Z</time>
      </trkpt>
      <trkpt lat="48.55253" lon="-3.39609">
        <ele>124.6</ele>
        <time>2014-03-10T13:22:53Z</time>
      </trkpt>
      <trkpt lat="48.55263" lon="-3.39614">
        <ele>125.6</ele>
        <time>2014-03-10T13:23:05Z</time>
      </trkpt>
      <trkpt lat="48.55274" lon="-3.39616">
        <ele>126.1</ele>
        <time>2014-03-10T13:23:14Z</time>
      </trkpt>
      <trkpt lat="48.55285" lon="-3.39617">
        <ele>125.9</ele>
        <time>2014-03-10T13:23:22Z</time>
      </trkpt>
      <trkpt lat="48.55294" lon="-3.39617">
        <ele>125.1</ele>
        <time>2014-03-10T13:23:30Z</time>
      </trkpt>
      <trkpt lat="48.55304" lon="-3.39618">
        <ele>125.7</ele>
        <time>2014-03-10T13:23:39Z</time>
      </trkpt>
      <trkpt lat="48.55313" lon="-3.39621">
        <ele>125.2</ele>
        <time>2014-03-10T13:23:52Z</time>
      </trkpt>
      <trkpt lat="48.55325" lon="-3.39625">
        <ele>125.1</ele>
        <time>2014-03-10T13:25:10Z</time>
      </trkpt>
      <trkpt lat="48.55336" lon="-3.39628">
        <ele>124.2</ele>
        <time>2014-03-10T13:25:25Z</time>
      </trkpt>
      <trkpt lat="48.55345" lon="-3.39633">
        <ele>124.5</ele>
        <time>2014-03-10T13:25:34Z</time>
      </trkpt>
      <trkpt lat="48.55355" lon="-3.39635">
        <ele>125.3</ele>
        <time>2014-03-10T13:25:43Z</time>
      </trkpt>
      <trkpt lat="48.55364" lon="-3.39639">
        <ele>125.9</ele>
        <time>2014-03-10T13:25:49Z</time>
      </trkpt>
      <trkpt lat="48.55373" lon="-3.39642">
        <ele>126.1</ele>
        <time>2014-03-10T13:25:54Z</time>
      </trkpt>
      <trkpt lat="48.55382" lon="-3.39647">
        <ele>125.1</ele>
        <time>2014-03-10T13:26:01Z</time>
      </trkpt>
      <trkpt lat="48.55392" lon="-3.39652">
        <ele>126.4</ele>
        <time>2014-03-10T13:26:09Z</time>
      </trkpt>
      <trkpt lat="48.55402" lon="-3.39658">
        <ele>126.7</ele>
        <time>2014-03-10T13:26:17Z</time>
      </trkpt>
      <trkpt lat="48.5541" lon="-3.39669">
        <ele>126.7</ele>
        <time>2014-03-10T13:26:25Z</time>
      </trkpt>
      <trkpt lat="48.55422" lon="-3.39676">
        <ele>125.1</ele>
        <time>2014-03-10T13:26:32Z</time>
      </trkpt>
      <trkpt lat="48.55432" lon="-3.39681">
        <ele>124.8</ele>
        <time>2014-03-10T13:26:41Z</time>
      </trkpt>
      <trkpt lat="48.5544" lon="-3.39691">
        <ele>124.2</ele>
        <time>2014-03-10T13:26:49Z</time>
      </trkpt>
      <trkpt lat="48.55447" lon="-3.39701">
        <ele>125.7</ele>
        <time>2014-03-10T13:26:57Z</time>
      </trkpt>
      <trkpt lat="48.55454" lon="-3.3971">
        <ele>125.5</ele>
        <time>2014-03-10T13:27:04Z</time>
      </trkpt>
      <trkpt lat="48.55461" lon="-3.39719">
        <ele>125.6</ele>
        <time>2014-03-10T13:27:11Z</time>
      </trkpt>
      <trkpt lat="48.5547" lon="-3.39725">
        <ele>125.8</ele>
        <time>2014-03-10T13:29:21Z</time>
      </trkpt>
      <trkpt lat="48.55479" lon="-3.39727">
        <ele>125.4</ele>
        <time>2014-03-10T13:29:29Z</time>
      </trkpt>
      <trkpt lat="48.55491" lon="-3.39731">
        <ele>125.9</ele>
        <time>2014-03-10T13:29:36Z</time>
      </trkpt>
      <trkpt lat="48.55489" lon="-3.39717">
        <ele>125.4</ele>
        <time>2014-03-10T13:29:58Z</time>
      </trkpt>
      <trkpt lat="48.55479" lon="-3.39711">
        <ele>126.8</ele>
        <time>2014-03-10T13:30:07Z</time>
      </trkpt>
      <trkpt lat="48.55475" lon="-3.39698">
        <ele>130.1</ele>
        <time>2014-03-10T13:30:16Z</time>
      </trkpt>
      <trkpt lat="48.55469" lon="-3.39686">
        <ele>132.4</ele>
        <time>2014-03-10T13:30:29Z</time>
      </trkpt>
      <trkpt lat="48.55463" lon="-3.39672">
        <ele>135.6</ele>
        <time>2014-03-10T13:30:44Z</time>
      </trkpt>
      <trkpt lat="48.55459" lon="-3.39659">
        <ele>136</ele>
        <time>2014-03-10T13:30:54Z</time>
      </trkpt>
      <trkpt lat="48.55454" lon="-3.39645">
        <ele>137.7</ele>
        <time>2014-03-10T13:31:07Z</time>
      </trkpt>
      <trkpt lat="48.55447" lon="-3.39631">
        <ele>140.5</ele>
        <time>2014-03-10T13:31:24Z</time>
      </trkpt>
      <trkpt lat="48.55455" lon="-3.39636">
        <ele>141.2</ele>
        <time>2014-03-10T13:31:55Z</time>
      </trkpt>
      <trkpt lat="48.55467" lon="-3.3964">
        <ele>142.8</ele>
        <time>2014-03-10T13:32:06Z</time>
      </trkpt>
      <trkpt lat="48.55477" lon="-3.39642">
        <ele>144.7</ele>
        <time>2014-03-10T13:32:17Z</time>
      </trkpt>
      <trkpt lat="48.55486" lon="-3.39643">
        <ele>143.9</ele>
        <time>2014-03-10T13:32:27Z</time>
      </trkpt>
      <trkpt lat="48.55495" lon="-3.39641">
        <ele>148.7</ele>
        <time>2014-03-10T13:32:36Z</time>
      </trkpt>
      <trkpt lat="48.55508" lon="-3.39636">
        <ele>148.7</ele>
        <time>2014-03-10T13:33:01Z</time>
      </trkpt>
      <trkpt lat="48.55513" lon="-3.39625">
        <ele>150.1</ele>
        <time>2014-03-10T13:33:11Z</time>
      </trkpt>
      <trkpt lat="48.55521" lon="-3.39617">
        <ele>151</ele>
        <time>2014-03-10T13:33:33Z</time>
      </trkpt>
      <trkpt lat="48.55533" lon="-3.39617">
        <ele>150.9</ele>
        <time>2014-03-10T13:33:45Z</time>
      </trkpt>
      <trkpt lat="48.55533" lon="-3.39632">
        <ele>150.7</ele>
        <time>2014-03-10T13:33:57Z</time>
      </trkpt>
      <trkpt lat="48.55524" lon="-3.39633">
        <ele>151.4</ele>
        <time>2014-03-10T13:34:09Z</time>
      </trkpt>
      <trkpt lat="48.55515" lon="-3.3963">
        <ele>151.4</ele>
        <time>2014-03-10T13:34:20Z</time>
      </trkpt>
      <trkpt lat="48.5551" lon="-3.39618">
        <ele>150.4</ele>
        <time>2014-03-10T13:34:31Z</time>
      </trkpt>
      <trkpt lat="48.55512" lon="-3.39599">
        <ele>149.3</ele>
        <time>2014-03-10T13:35:08Z</time>
      </trkpt>
      <trkpt lat="48.55511" lon="-3.39585">
        <ele>150.5</ele>
        <time>2014-03-10T13:35:19Z</time>
      </trkpt>
      <trkpt lat="48.55511" lon="-3.39571">
        <ele>151.7</ele>
        <time>2014-03-10T13:35:30Z</time>
      </trkpt>
      <trkpt lat="48.55511" lon="-3.39557">
        <ele>152.1</ele>
        <time>2014-03-10T13:35:40Z</time>
      </trkpt>
      <trkpt lat="48.55511" lon="-3.39538">
        <ele>152.2</ele>
        <time>2014-03-10T13:35:50Z</time>
      </trkpt>
      <trkpt lat="48.55511" lon="-3.39525">
        <ele>151.5</ele>
        <time>2014-03-10T13:36:06Z</time>
      </trkpt>
      <trkpt lat="48.55509" lon="-3.3951">
        <ele>152.3</ele>
        <time>2014-03-10T13:36:13Z</time>
      </trkpt>
      <trkpt lat="48.55511" lon="-3.39494">
        <ele>153.3</ele>
        <time>2014-03-10T13:36:24Z</time>
      </trkpt>
      <trkpt lat="48.55509" lon="-3.39479">
        <ele>152.7</ele>
        <time>2014-03-10T13:36:34Z</time>
      </trkpt>
      <trkpt lat="48.55506" lon="-3.39466">
        <ele>151.9</ele>
        <time>2014-03-10T13:36:42Z</time>
      </trkpt>
      <trkpt lat="48.55507" lon="-3.39453">
        <ele>155.6</ele>
        <time>2014-03-10T13:36:53Z</time>
      </trkpt>
      <trkpt lat="48.55512" lon="-3.39441">
        <ele>155.8</ele>
        <time>2014-03-10T13:37:03Z</time>
      </trkpt>
      <trkpt lat="48.55522" lon="-3.39437">
        <ele>156.8</ele>
        <time>2014-03-10T13:37:14Z</time>
      </trkpt>
      <trkpt lat="48.5553" lon="-3.39442">
        <ele>157.9</ele>
        <time>2014-03-10T13:37:23Z</time>
      </trkpt>
      <trkpt lat="48.55539" lon="-3.39447">
        <ele>157.2</ele>
        <time>2014-03-10T13:37:29Z</time>
      </trkpt>
      <trkpt lat="48.55552" lon="-3.39447">
        <ele>156.9</ele>
        <time>2014-03-10T13:37:41Z</time>
      </trkpt>
      <trkpt lat="48.55562" lon="-3.39449">
        <ele>157.1</ele>
        <time>2014-03-10T13:37:49Z</time>
      </trkpt>
      <trkpt lat="48.55572" lon="-3.39452">
        <ele>156.9</ele>
        <time>2014-03-10T13:37:56Z</time>
      </trkpt>
      <trkpt lat="48.55582" lon="-3.39451">
        <ele>155.8</ele>
        <time>2014-03-10T13:38:04Z</time>
      </trkpt>
      <trkpt lat="48.55594" lon="-3.39449">
        <ele>154.4</ele>
        <time>2014-03-10T13:38:14Z</time>
      </trkpt>
      <trkpt lat="48.55605" lon="-3.3945">
        <ele>154.1</ele>
        <time>2014-03-10T13:38:23Z</time>
      </trkpt>
      <trkpt lat="48.55614" lon="-3.39451">
        <ele>155.2</ele>
        <time>2014-03-10T13:38:31Z</time>
      </trkpt>
      <trkpt lat="48.55628" lon="-3.39451">
        <ele>154.2</ele>
        <time>2014-03-10T13:38:44Z</time>
      </trkpt>
      <trkpt lat="48.55637" lon="-3.39449">
        <ele>154.1</ele>
        <time>2014-03-10T13:38:53Z</time>
      </trkpt>
      <trkpt lat="48.55647" lon="-3.39446">
        <ele>152.9</ele>
        <time>2014-03-10T13:39:01Z</time>
      </trkpt>
      <trkpt lat="48.55657" lon="-3.39438">
        <ele>154.5</ele>
        <time>2014-03-10T13:39:12Z</time>
      </trkpt>
      <trkpt lat="48.55666" lon="-3.39432">
        <ele>154</ele>
        <time>2014-03-10T13:39:24Z</time>
      </trkpt>
      <trkpt lat="48.55676" lon="-3.39426">
        <ele>153.8</ele>
        <time>2014-03-10T13:39:35Z</time>
      </trkpt>
      <trkpt lat="48.55686" lon="-3.39425">
        <ele>153</ele>
        <time>2014-03-10T13:39:42Z</time>
      </trkpt>
      <trkpt lat="48.55696" lon="-3.3943">
        <ele>151.9</ele>
        <time>2014-03-10T13:40:29Z</time>
      </trkpt>
      <trkpt lat="48.55709" lon="-3.39435">
        <ele>151.4</ele>
        <time>2014-03-10T13:40:37Z</time>
      </trkpt>
      <trkpt lat="48.5572" lon="-3.39433">
        <ele>149.9</ele>
        <time>2014-03-10T13:40:49Z</time>
      </trkpt>
      <trkpt lat="48.55731" lon="-3.39425">
        <ele>147</ele>
        <time>2014-03-10T13:41:02Z</time>
      </trkpt>
      <trkpt lat="48.55741" lon="-3.39425">
        <ele>144.8</ele>
        <time>2014-03-10T13:41:10Z</time>
      </trkpt>
      <trkpt lat="48.55753" lon="-3.39424">
        <ele>141.5</ele>
        <time>2014-03-10T13:41:24Z</time>
      </trkpt>
      <trkpt lat="48.55761" lon="-3.39431">
        <ele>139.7</ele>
        <time>2014-03-10T13:41:33Z</time>
      </trkpt>
      <trkpt lat="48.55769" lon="-3.39438">
        <ele>137.6</ele>
        <time>2014-03-10T13:41:42Z</time>
      </trkpt>
      <trkpt lat="48.55777" lon="-3.39446">
        <ele>135.4</ele>
        <time>2014-03-10T13:41:52Z</time>
      </trkpt>
      <trkpt lat="48.55784" lon="-3.39457">
        <ele>133.4</ele>
        <time>2014-03-10T13:42:04Z</time>
      </trkpt>
      <trkpt lat="48.55792" lon="-3.39465">
        <ele>130.5</ele>
        <time>2014-03-10T13:42:15Z</time>
      </trkpt>
      <trkpt lat="48.558" lon="-3.39476">
        <ele>128.5</ele>
        <time>2014-03-10T13:42:26Z</time>
      </trkpt>
      <trkpt lat="48.55808" lon="-3.39486">
        <ele>126.8</ele>
        <time>2014-03-10T13:42:35Z</time>
      </trkpt>
      <trkpt lat="48.55808" lon="-3.39501">
        <ele>125.2</ele>
        <time>2014-03-10T13:42:44Z</time>
      </trkpt>
      <trkpt lat="48.55817" lon="-3.39487">
        <ele>125.2</ele>
        <time>2014-03-10T13:42:58Z</time>
      </trkpt>
      <trkpt lat="48.55825" lon="-3.39479">
        <ele>123.2</ele>
        <time>2014-03-10T13:43:06Z</time>
      </trkpt>
      <trkpt lat="48.55832" lon="-3.39471">
        <ele>123.3</ele>
        <time>2014-03-10T13:43:14Z</time>
      </trkpt>
      <trkpt lat="48.55841" lon="-3.39478">
        <ele>122.4</ele>
        <time>2014-03-10T13:44:42Z</time>
      </trkpt>
      <trkpt lat="48.55847" lon="-3.3949">
        <ele>122.5</ele>
        <time>2014-03-10T13:44:50Z</time>
      </trkpt>
      <trkpt lat="48.55842" lon="-3.39502">
        <ele>121.3</ele>
        <time>2014-03-10T13:44:57Z</time>
      </trkpt>
      <trkpt lat="48.55833" lon="-3.39515">
        <ele>120.5</ele>
        <time>2014-03-10T13:45:04Z</time>
      </trkpt>
      <trkpt lat="48.55829" lon="-3.39528">
        <ele>119</ele>
        <time>2014-03-10T13:45:11Z</time>
      </trkpt>
      <trkpt lat="48.55828" lon="-3.39546">
        <ele>117.1</ele>
        <time>2014-03-10T13:45:23Z</time>
      </trkpt>
      <trkpt lat="48.55834" lon="-3.3956">
        <ele>115.5</ele>
        <time>2014-03-10T13:45:31Z</time>
      </trkpt>
      <trkpt lat="48.55836" lon="-3.39575">
        <ele>113.8</ele>
        <time>2014-03-10T13:45:39Z</time>
      </trkpt>
      <trkpt lat="48.55848" lon="-3.39581">
        <ele>111.9</ele>
        <time>2014-03-10T13:45:54Z</time>
      </trkpt>
      <trkpt lat="48.55858" lon="-3.39588">
        <ele>111.2</ele>
        <time>2014-03-10T13:46:07Z</time>
      </trkpt>
      <trkpt lat="48.55869" lon="-3.39585">
        <ele>110.4</ele>
        <time>2014-03-10T13:46:15Z</time>
      </trkpt>
      <trkpt lat="48.55878" lon="-3.39583">
        <ele>110.4</ele>
        <time>2014-03-10T13:46:24Z</time>
      </trkpt>
      <trkpt lat="48.55886" lon="-3.39573">
        <ele>109.7</ele>
        <time>2014-03-10T13:46:34Z</time>
      </trkpt>
      <trkpt lat="48.55894" lon="-3.39567">
        <ele>108.9</ele>
        <time>2014-03-10T13:46:40Z</time>
      </trkpt>
      <trkpt lat="48.55904" lon="-3.39558">
        <ele>109.4</ele>
        <time>2014-03-10T13:46:45Z</time>
      </trkpt>
      <trkpt lat="48.55918" lon="-3.39541">
        <ele>108.5</ele>
        <time>2014-03-10T13:46:53Z</time>
      </trkpt>
      <trkpt lat="48.55927" lon="-3.3953">
        <ele>107.3</ele>
        <time>2014-03-10T13:47:01Z</time>
      </trkpt>
      <trkpt lat="48.55937" lon="-3.39532">
        <ele>109.2</ele>
        <time>2014-03-10T13:47:14Z</time>
      </trkpt>
      <trkpt lat="48.55945" lon="-3.39536">
        <ele>108.3</ele>
        <time>2014-03-10T13:47:22Z</time>
      </trkpt>
      <trkpt lat="48.55955" lon="-3.39548">
        <ele>107.2</ele>
        <time>2014-03-10T13:47:37Z</time>
      </trkpt>
      <trkpt lat="48.55963" lon="-3.39554">
        <ele>107.4</ele>
        <time>2014-03-10T13:47:45Z</time>
      </trkpt>
      <trkpt lat="48.55976" lon="-3.39558">
        <ele>109.1</ele>
        <time>2014-03-10T13:47:53Z</time>
      </trkpt>
      <trkpt lat="48.55984" lon="-3.39554">
        <ele>107.9</ele>
        <time>2014-03-10T13:48:02Z</time>
      </trkpt>
      <trkpt lat="48.55997" lon="-3.39553">
        <ele>107.3</ele>
        <time>2014-03-10T13:48:14Z</time>
      </trkpt>
      <trkpt lat="48.56007" lon="-3.39554">
        <ele>106.8</ele>
        <time>2014-03-10T13:48:29Z</time>
      </trkpt>
      <trkpt lat="48.56019" lon="-3.39559">
        <ele>106.1</ele>
        <time>2014-03-10T13:48:39Z</time>
      </trkpt>
      <trkpt lat="48.56031" lon="-3.39559">
        <ele>106.6</ele>
        <time>2014-03-10T13:48:52Z</time>
      </trkpt>
      <trkpt lat="48.56036" lon="-3.39546">
        <ele>106</ele>
        <time>2014-03-10T13:49:02Z</time>
      </trkpt>
      <trkpt lat="48.56043" lon="-3.39534">
        <ele>107.2</ele>
        <time>2014-03-10T13:49:15Z</time>
      </trkpt>
      <trkpt lat="48.56052" lon="-3.39529">
        <ele>108.7</ele>
        <time>2014-03-10T13:49:25Z</time>
      </trkpt>
      <trkpt lat="48.56061" lon="-3.39531">
        <ele>110.2</ele>
        <time>2014-03-10T13:49:34Z</time>
      </trkpt>
      <trkpt lat="48.56072" lon="-3.39536">
        <ele>107.9</ele>
        <time>2014-03-10T13:49:45Z</time>
      </trkpt>
      <trkpt lat="48.56081" lon="-3.39542">
        <ele>108</ele>
        <time>2014-03-10T13:49:54Z</time>
      </trkpt>
      <trkpt lat="48.56092" lon="-3.39555">
        <ele>114.6</ele>
        <time>2014-03-10T13:50:08Z</time>
      </trkpt>
      <trkpt lat="48.56096" lon="-3.39567">
        <ele>113.9</ele>
        <time>2014-03-10T13:50:19Z</time>
      </trkpt>
      <trkpt lat="48.56098" lon="-3.39584">
        <ele>114.3</ele>
        <time>2014-03-10T13:50:30Z</time>
      </trkpt>
      <trkpt lat="48.56103" lon="-3.39603">
        <ele>113.5</ele>
        <time>2014-03-10T13:50:39Z</time>
      </trkpt>
      <trkpt lat="48.56106" lon="-3.39616">
        <ele>111.9</ele>
        <time>2014-03-10T13:50:47Z</time>
      </trkpt>
      <trkpt lat="48.56113" lon="-3.39625">
        <ele>111.4</ele>
        <time>2014-03-10T13:50:55Z</time>
      </trkpt>
      <trkpt lat="48.56119" lon="-3.39635">
        <ele>111.8</ele>
        <time>2014-03-10T13:51:05Z</time>
      </trkpt>
      <trkpt lat="48.56128" lon="-3.3965">
        <ele>112.5</ele>
        <time>2014-03-10T13:51:18Z</time>
      </trkpt>
      <trkpt lat="48.56135" lon="-3.3966">
        <ele>111.9</ele>
        <time>2014-03-10T13:51:27Z</time>
      </trkpt>
      <trkpt lat="48.56142" lon="-3.39672">
        <ele>114</ele>
        <time>2014-03-10T13:51:35Z</time>
      </trkpt>
      <trkpt lat="48.5615" lon="-3.3968">
        <ele>116.7</ele>
        <time>2014-03-10T13:51:50Z</time>
      </trkpt>
      <trkpt lat="48.56146" lon="-3.39692">
        <ele>116.9</ele>
        <time>2014-03-10T13:52:39Z</time>
      </trkpt>
      <trkpt lat="48.56156" lon="-3.39694">
        <ele>116.2</ele>
        <time>2014-03-10T13:53:18Z</time>
      </trkpt>
      <trkpt lat="48.56165" lon="-3.39701">
        <ele>117.1</ele>
        <time>2014-03-10T13:53:27Z</time>
      </trkpt>
      <trkpt lat="48.56171" lon="-3.39711">
        <ele>117.9</ele>
        <time>2014-03-10T13:53:35Z</time>
      </trkpt>
      <trkpt lat="48.56181" lon="-3.39713">
        <ele>121.4</ele>
        <time>2014-03-10T13:53:46Z</time>
      </trkpt>
      <trkpt lat="48.56191" lon="-3.39722">
        <ele>124.8</ele>
        <time>2014-03-10T13:54:01Z</time>
      </trkpt>
      <trkpt lat="48.56199" lon="-3.39732">
        <ele>126.6</ele>
        <time>2014-03-10T13:54:16Z</time>
      </trkpt>
      <trkpt lat="48.56207" lon="-3.3974">
        <ele>124.2</ele>
        <time>2014-03-10T13:54:31Z</time>
      </trkpt>
      <trkpt lat="48.56217" lon="-3.39752">
        <ele>126</ele>
        <time>2014-03-10T13:54:45Z</time>
      </trkpt>
      <trkpt lat="48.56221" lon="-3.39765">
        <ele>125</ele>
        <time>2014-03-10T13:55:00Z</time>
      </trkpt>
      <trkpt lat="48.56217" lon="-3.39778">
        <ele>122.4</ele>
        <time>2014-03-10T13:55:14Z</time>
      </trkpt>
      <trkpt lat="48.56211" lon="-3.3979">
        <ele>120.2</ele>
        <time>2014-03-10T13:55:23Z</time>
      </trkpt>
      <trkpt lat="48.56205" lon="-3.398">
        <ele>117.5</ele>
        <time>2014-03-10T13:55:32Z</time>
      </trkpt>
      <trkpt lat="48.56197" lon="-3.3981">
        <ele>115.2</ele>
        <time>2014-03-10T13:55:41Z</time>
      </trkpt>
      <trkpt lat="48.56189" lon="-3.39815">
        <ele>114.2</ele>
        <time>2014-03-10T13:55:47Z</time>
      </trkpt>
      <trkpt lat="48.56178" lon="-3.39821">
        <ele>111.4</ele>
        <time>2014-03-10T13:55:58Z</time>
      </trkpt>
      <trkpt lat="48.56171" lon="-3.3983">
        <ele>110.5</ele>
        <time>2014-03-10T13:56:07Z</time>
      </trkpt>
      <trkpt lat="48.56163" lon="-3.39837">
        <ele>109.6</ele>
        <time>2014-03-10T13:56:15Z</time>
      </trkpt>
      <trkpt lat="48.56164" lon="-3.39851">
        <ele>109.7</ele>
        <time>2014-03-10T13:56:28Z</time>
      </trkpt>
      <trkpt lat="48.56173" lon="-3.39858">
        <ele>109.8</ele>
        <time>2014-03-10T13:56:34Z</time>
      </trkpt>
      <trkpt lat="48.56181" lon="-3.39868">
        <ele>110.5</ele>
        <time>2014-03-10T13:56:42Z</time>
      </trkpt>
      <trkpt lat="48.56185" lon="-3.39884">
        <ele>110.9</ele>
        <time>2014-03-10T13:56:55Z</time>
      </trkpt>
      <trkpt lat="48.56179" lon="-3.39895">
        <ele>110.7</ele>
        <time>2014-03-10T13:57:04Z</time>
      </trkpt>
      <trkpt lat="48.5618" lon="-3.3991">
        <ele>109.5</ele>
        <time>2014-03-10T13:57:12Z</time>
      </trkpt>
      <trkpt lat="48.56182" lon="-3.39931">
        <ele>110.2</ele>
        <time>2014-03-10T13:57:23Z</time>
      </trkpt>
      <trkpt lat="48.56187" lon="-3.3995">
        <ele>110.2</ele>
        <time>2014-03-10T13:57:40Z</time>
      </trkpt>
      <trkpt lat="48.5619" lon="-3.39963">
        <ele>109.8</ele>
        <time>2014-03-10T13:57:50Z</time>
      </trkpt>
      <trkpt lat="48.56193" lon="-3.39985">
        <ele>110.1</ele>
        <time>2014-03-10T13:58:03Z</time>
      </trkpt>
      <trkpt lat="48.56199" lon="-3.40002">
        <ele>108.6</ele>
        <time>2014-03-10T13:58:11Z</time>
      </trkpt>
      <trkpt lat="48.562" lon="-3.40016">
        <ele>109.2</ele>
        <time>2014-03-10T13:58:18Z</time>
      </trkpt>
      <trkpt lat="48.56203" lon="-3.4003">
        <ele>107.8</ele>
        <time>2014-03-10T13:58:26Z</time>
      </trkpt>
      <trkpt lat="48.56213" lon="-3.40034">
        <ele>107.9</ele>
        <time>2014-03-10T13:58:41Z</time>
      </trkpt>
      <trkpt lat="48.56222" lon="-3.40026">
        <ele>109.8</ele>
        <time>2014-03-10T13:58:57Z</time>
      </trkpt>
      <trkpt lat="48.56231" lon="-3.40032">
        <ele>108.9</ele>
        <time>2014-03-10T13:59:05Z</time>
      </trkpt>
      <trkpt lat="48.56239" lon="-3.4004">
        <ele>108.2</ele>
        <time>2014-03-10T13:59:09Z</time>
      </trkpt>
      <trkpt lat="48.56245" lon="-3.40051">
        <ele>109.1</ele>
        <time>2014-03-10T13:59:18Z</time>
      </trkpt>
      <trkpt lat="48.56249" lon="-3.40065">
        <ele>110.8</ele>
        <time>2014-03-10T13:59:28Z</time>
      </trkpt>
      <trkpt lat="48.56254" lon="-3.4008">
        <ele>108.3</ele>
        <time>2014-03-10T13:59:41Z</time>
      </trkpt>
      <trkpt lat="48.56258" lon="-3.40093">
        <ele>107.6</ele>
        <time>2014-03-10T13:59:51Z</time>
      </trkpt>
      <trkpt lat="48.56265" lon="-3.40103">
        <ele>108.8</ele>
        <time>2014-03-10T13:59:57Z</time>
      </trkpt>
      <trkpt lat="48.56274" lon="-3.40116">
        <ele>109.3</ele>
        <time>2014-03-10T14:00:04Z</time>
      </trkpt>
      <trkpt lat="48.56279" lon="-3.4013">
        <ele>107.9</ele>
        <time>2014-03-10T14:00:16Z</time>
      </trkpt>
      <trkpt lat="48.56287" lon="-3.40141">
        <ele>109.5</ele>
        <time>2014-03-10T14:00:22Z</time>
      </trkpt>
      <trkpt lat="48.56294" lon="-3.40151">
        <ele>110</ele>
        <time>2014-03-10T14:00:31Z</time>
      </trkpt>
      <trkpt lat="48.56305" lon="-3.40159">
        <ele>110.1</ele>
        <time>2014-03-10T14:00:39Z</time>
      </trkpt>
      <trkpt lat="48.56315" lon="-3.40166">
        <ele>109.5</ele>
        <time>2014-03-10T14:00:47Z</time>
      </trkpt>
      <trkpt lat="48.56319" lon="-3.40179">
        <ele>109.9</ele>
        <time>2014-03-10T14:00:55Z</time>
      </trkpt>
      <trkpt lat="48.56322" lon="-3.40197">
        <ele>107.9</ele>
        <time>2014-03-10T14:01:08Z</time>
      </trkpt>
      <trkpt lat="48.56329" lon="-3.40208">
        <ele>107.8</ele>
        <time>2014-03-10T14:01:16Z</time>
      </trkpt>
      <trkpt lat="48.56334" lon="-3.40219">
        <ele>108.3</ele>
        <time>2014-03-10T14:01:24Z</time>
      </trkpt>
      <trkpt lat="48.56342" lon="-3.40229">
        <ele>106.7</ele>
        <time>2014-03-10T14:01:31Z</time>
      </trkpt>
      <trkpt lat="48.56348" lon="-3.40239">
        <ele>107.3</ele>
        <time>2014-03-10T14:01:39Z</time>
      </trkpt>
      <trkpt lat="48.56355" lon="-3.40249">
        <ele>107.9</ele>
        <time>2014-03-10T14:01:47Z</time>
      </trkpt>
      <trkpt lat="48.56358" lon="-3.40262">
        <ele>108.6</ele>
        <time>2014-03-10T14:01:55Z</time>
      </trkpt>
      <trkpt lat="48.5636" lon="-3.40277">
        <ele>107.9</ele>
        <time>2014-03-10T14:02:04Z</time>
      </trkpt>
      <trkpt lat="48.56367" lon="-3.40293">
        <ele>107.8</ele>
        <time>2014-03-10T14:02:14Z</time>
      </trkpt>
      <trkpt lat="48.56373" lon="-3.40304">
        <ele>106.5</ele>
        <time>2014-03-10T14:02:23Z</time>
      </trkpt>
      <trkpt lat="48.56379" lon="-3.40314">
        <ele>108.1</ele>
        <time>2014-03-10T14:02:33Z</time>
      </trkpt>
      <trkpt lat="48.56387" lon="-3.40322">
        <ele>107.7</ele>
        <time>2014-03-10T14:02:52Z</time>
      </trkpt>
      <trkpt lat="48.56396" lon="-3.40318">
        <ele>108.7</ele>
        <time>2014-03-10T14:03:01Z</time>
      </trkpt>
      <trkpt lat="48.56407" lon="-3.40317">
        <ele>111.3</ele>
        <time>2014-03-10T14:03:19Z</time>
      </trkpt>
      <trkpt lat="48.56415" lon="-3.40309">
        <ele>110</ele>
        <time>2014-03-10T14:03:31Z</time>
      </trkpt>
      <trkpt lat="48.56426" lon="-3.40308">
        <ele>109.2</ele>
        <time>2014-03-10T14:03:44Z</time>
      </trkpt>
      <trkpt lat="48.56436" lon="-3.40309">
        <ele>115.1</ele>
        <time>2014-03-10T14:03:57Z</time>
      </trkpt>
      <trkpt lat="48.56446" lon="-3.40306">
        <ele>114.9</ele>
        <time>2014-03-10T14:04:12Z</time>
      </trkpt>
      <trkpt lat="48.56455" lon="-3.40304">
        <ele>121.1</ele>
        <time>2014-03-10T14:04:22Z</time>
      </trkpt>
      <trkpt lat="48.56467" lon="-3.40295">
        <ele>120.8</ele>
        <time>2014-03-10T14:04:32Z</time>
      </trkpt>
      <trkpt lat="48.56477" lon="-3.40289">
        <ele>121.6</ele>
        <time>2014-03-10T14:04:49Z</time>
      </trkpt>
      <trkpt lat="48.56481" lon="-3.40275">
        <ele>125.2</ele>
        <time>2014-03-10T14:05:04Z</time>
      </trkpt>
      <trkpt lat="48.56481" lon="-3.40259">
        <ele>128.1</ele>
        <time>2014-03-10T14:05:16Z</time>
      </trkpt>
      <trkpt lat="48.5649" lon="-3.40261">
        <ele>127.3</ele>
        <time>2014-03-10T14:05:43Z</time>
      </trkpt>
      <trkpt lat="48.56499" lon="-3.40265">
        <ele>126.5</ele>
        <time>2014-03-10T14:05:52Z</time>
      </trkpt>
      <trkpt lat="48.56507" lon="-3.40275">
        <ele>125.8</ele>
        <time>2014-03-10T14:06:03Z</time>
      </trkpt>
      <trkpt lat="48.56514" lon="-3.40284">
        <ele>124.7</ele>
        <time>2014-03-10T14:06:12Z</time>
      </trkpt>
      <trkpt lat="48.56528" lon="-3.40289">
        <ele>124.3</ele>
        <time>2014-03-10T14:06:23Z</time>
      </trkpt>
      <trkpt lat="48.56538" lon="-3.40289">
        <ele>125.2</ele>
        <time>2014-03-10T14:06:29Z</time>
      </trkpt>
      <trkpt lat="48.56546" lon="-3.40297">
        <ele>124.3</ele>
        <time>2014-03-10T14:06:38Z</time>
      </trkpt>
      <trkpt lat="48.56555" lon="-3.40302">
        <ele>124.5</ele>
        <time>2014-03-10T14:06:47Z</time>
      </trkpt>
      <trkpt lat="48.56568" lon="-3.4031">
        <ele>123.7</ele>
        <time>2014-03-10T14:06:58Z</time>
      </trkpt>
      <trkpt lat="48.56577" lon="-3.40316">
        <ele>122</ele>
        <time>2014-03-10T14:07:07Z</time>
      </trkpt>
      <trkpt lat="48.56587" lon="-3.40322">
        <ele>121.1</ele>
        <time>2014-03-10T14:07:15Z</time>
      </trkpt>
      <trkpt lat="48.56597" lon="-3.40325">
        <ele>120.2</ele>
        <time>2014-03-10T14:07:25Z</time>
      </trkpt>
      <trkpt lat="48.56606" lon="-3.4033">
        <ele>119.2</ele>
        <time>2014-03-10T14:07:33Z</time>
      </trkpt>
      <trkpt lat="48.56615" lon="-3.40335">
        <ele>117.9</ele>
        <time>2014-03-10T14:07:42Z</time>
      </trkpt>
      <trkpt lat="48.56623" lon="-3.40347">
        <ele>116</ele>
        <time>2014-03-10T14:07:56Z</time>
      </trkpt>
      <trkpt lat="48.5663" lon="-3.40358">
        <ele>114.9</ele>
        <time>2014-03-10T14:08:02Z</time>
      </trkpt>
      <trkpt lat="48.5664" lon="-3.40367">
        <ele>114.3</ele>
        <time>2014-03-10T14:08:11Z</time>
      </trkpt>
      <trkpt lat="48.56649" lon="-3.40374">
        <ele>114.1</ele>
        <time>2014-03-10T14:08:21Z</time>
      </trkpt>
      <trkpt lat="48.56658" lon="-3.4038">
        <ele>117.5</ele>
        <time>2014-03-10T14:08:34Z</time>
      </trkpt>
      <trkpt lat="48.5667" lon="-3.40385">
        <ele>118</ele>
        <time>2014-03-10T14:08:48Z</time>
      </trkpt>
      <trkpt lat="48.56679" lon="-3.40392">
        <ele>121.1</ele>
        <time>2014-03-10T14:09:03Z</time>
      </trkpt>
      <trkpt lat="48.56684" lon="-3.40404">
        <ele>119.9</ele>
        <time>2014-03-10T14:09:14Z</time>
      </trkpt>
      <trkpt lat="48.56694" lon="-3.40415">
        <ele>118.6</ele>
        <time>2014-03-10T14:09:42Z</time>
      </trkpt>
      <trkpt lat="48.56704" lon="-3.40428">
        <ele>116.8</ele>
        <time>2014-03-10T14:09:59Z</time>
      </trkpt>
      <trkpt lat="48.56712" lon="-3.40435">
        <ele>115.6</ele>
        <time>2014-03-10T14:10:06Z</time>
      </trkpt>
      <trkpt lat="48.56721" lon="-3.40443">
        <ele>113.9</ele>
        <time>2014-03-10T14:10:15Z</time>
      </trkpt>
      <trkpt lat="48.56732" lon="-3.40453">
        <ele>111.8</ele>
        <time>2014-03-10T14:10:28Z</time>
      </trkpt>
      <trkpt lat="48.56741" lon="-3.40459">
        <ele>110.4</ele>
        <time>2014-03-10T14:10:38Z</time>
      </trkpt>
      <trkpt lat="48.56746" lon="-3.40475">
        <ele>109</ele>
        <time>2014-03-10T14:10:51Z</time>
      </trkpt>
      <trkpt lat="48.5675" lon="-3.40488">
        <ele>109.6</ele>
        <time>2014-03-10T14:10:59Z</time>
      </trkpt>
      <trkpt lat="48.56754" lon="-3.40501">
        <ele>108.9</ele>
        <time>2014-03-10T14:11:08Z</time>
      </trkpt>
      <trkpt lat="48.56761" lon="-3.40516">
        <ele>107.7</ele>
        <time>2014-03-10T14:11:22Z</time>
      </trkpt>
      <trkpt lat="48.56762" lon="-3.4053">
        <ele>107.4</ele>
        <time>2014-03-10T14:11:32Z</time>
      </trkpt>
      <trkpt lat="48.56765" lon="-3.40543">
        <ele>105.7</ele>
        <time>2014-03-10T14:11:55Z</time>
      </trkpt>
      <trkpt lat="48.56772" lon="-3.40553">
        <ele>106.1</ele>
        <time>2014-03-10T14:12:01Z</time>
      </trkpt>
      <trkpt lat="48.56776" lon="-3.40566">
        <ele>105.5</ele>
        <time>2014-03-10T14:12:09Z</time>
      </trkpt>
      <trkpt lat="48.56779" lon="-3.4058">
        <ele>105.7</ele>
        <time>2014-03-10T14:12:23Z</time>
      </trkpt>
      <trkpt lat="48.5678" lon="-3.40595">
        <ele>105.6</ele>
        <time>2014-03-10T14:12:33Z</time>
      </trkpt>
      <trkpt lat="48.56781" lon="-3.40616">
        <ele>106.4</ele>
        <time>2014-03-10T14:12:44Z</time>
      </trkpt>
      <trkpt lat="48.56784" lon="-3.40631">
        <ele>106.2</ele>
        <time>2014-03-10T14:12:52Z</time>
      </trkpt>
      <trkpt lat="48.5679" lon="-3.40645">
        <ele>106.7</ele>
        <time>2014-03-10T14:12:59Z</time>
      </trkpt>
      <trkpt lat="48.56789" lon="-3.40661">
        <ele>105.3</ele>
        <time>2014-03-10T14:13:09Z</time>
      </trkpt>
      <trkpt lat="48.56786" lon="-3.40674">
        <ele>104.9</ele>
        <time>2014-03-10T14:13:16Z</time>
      </trkpt>
      <trkpt lat="48.56779" lon="-3.40685">
        <ele>105.7</ele>
        <time>2014-03-10T14:13:21Z</time>
      </trkpt>
      <trkpt lat="48.56774" lon="-3.40703">
        <ele>106.4</ele>
        <time>2014-03-10T14:13:30Z</time>
      </trkpt>
      <trkpt lat="48.56768" lon="-3.40714">
        <ele>105.9</ele>
        <time>2014-03-10T14:13:39Z</time>
      </trkpt>
      <trkpt lat="48.56762" lon="-3.4073">
        <ele>105.9</ele>
        <time>2014-03-10T14:13:51Z</time>
      </trkpt>
      <trkpt lat="48.56754" lon="-3.40739">
        <ele>105.3</ele>
        <time>2014-03-10T14:13:59Z</time>
      </trkpt>
      <trkpt lat="48.56748" lon="-3.4075">
        <ele>105</ele>
        <time>2014-03-10T14:14:08Z</time>
      </trkpt>
      <trkpt lat="48.56732" lon="-3.40762">
        <ele>106.1</ele>
        <time>2014-03-10T14:14:31Z</time>
      </trkpt>
      <trkpt lat="48.56729" lon="-3.40776">
        <ele>105.5</ele>
        <time>2014-03-10T14:14:46Z</time>
      </trkpt>
      <trkpt lat="48.56721" lon="-3.40784">
        <ele>104.9</ele>
        <time>2014-03-10T14:14:55Z</time>
      </trkpt>
      <trkpt lat="48.56715" lon="-3.40795">
        <ele>105.7</ele>
        <time>2014-03-10T14:15:04Z</time>
      </trkpt>
      <trkpt lat="48.56708" lon="-3.40809">
        <ele>106.4</ele>
        <time>2014-03-10T14:15:17Z</time>
      </trkpt>
      <trkpt lat="48.56701" lon="-3.40821">
        <ele>105.1</ele>
        <time>2014-03-10T14:15:32Z</time>
      </trkpt>
      <trkpt lat="48.56691" lon="-3.40823">
        <ele>105.4</ele>
        <time>2014-03-10T14:15:47Z</time>
      </trkpt>
      <trkpt lat="48.5668" lon="-3.40828">
        <ele>106.5</ele>
        <time>2014-03-10T14:16:04Z</time>
      </trkpt>
      <trkpt lat="48.56671" lon="-3.4083">
        <ele>107.2</ele>
        <time>2014-03-10T14:16:12Z</time>
      </trkpt>
      <trkpt lat="48.56668" lon="-3.40843">
        <ele>107.7</ele>
        <time>2014-03-10T14:16:20Z</time>
      </trkpt>
      <trkpt lat="48.56662" lon="-3.40853">
        <ele>107.7</ele>
        <time>2014-03-10T14:16:27Z</time>
      </trkpt>
      <trkpt lat="48.56654" lon="-3.40863">
        <ele>106.4</ele>
        <time>2014-03-10T14:16:41Z</time>
      </trkpt>
      <trkpt lat="48.56644" lon="-3.40863">
        <ele>107.1</ele>
        <time>2014-03-10T14:16:54Z</time>
      </trkpt>
      <trkpt lat="48.56636" lon="-3.4087">
        <ele>108.4</ele>
        <time>2014-03-10T14:17:04Z</time>
      </trkpt>
      <trkpt lat="48.56628" lon="-3.40877">
        <ele>108.3</ele>
        <time>2014-03-10T14:17:14Z</time>
      </trkpt>
      <trkpt lat="48.56619" lon="-3.40886">
        <ele>110.1</ele>
        <time>2014-03-10T14:18:13Z</time>
      </trkpt>
      <trkpt lat="48.5661" lon="-3.40894">
        <ele>114.8</ele>
        <time>2014-03-10T14:20:01Z</time>
      </trkpt>
      <trkpt lat="48.566" lon="-3.40893">
        <ele>110.8</ele>
        <time>2014-03-10T14:20:36Z</time>
      </trkpt>
      <trkpt lat="48.56591" lon="-3.40899">
        <ele>111.3</ele>
        <time>2014-03-10T14:20:44Z</time>
      </trkpt>
      <trkpt lat="48.56581" lon="-3.40904">
        <ele>115</ele>
        <time>2014-03-10T14:20:59Z</time>
      </trkpt>
      <trkpt lat="48.5657" lon="-3.40906">
        <ele>113.3</ele>
        <time>2014-03-10T14:21:13Z</time>
      </trkpt>
      <trkpt lat="48.56564" lon="-3.40917">
        <ele>110.5</ele>
        <time>2014-03-10T14:21:24Z</time>
      </trkpt>
      <trkpt lat="48.56565" lon="-3.4093">
        <ele>109.1</ele>
        <time>2014-03-10T14:21:35Z</time>
      </trkpt>
      <trkpt lat="48.5657" lon="-3.40945">
        <ele>108.5</ele>
        <time>2014-03-10T14:21:49Z</time>
      </trkpt>
      <trkpt lat="48.56575" lon="-3.40963">
        <ele>106.3</ele>
        <time>2014-03-10T14:22:03Z</time>
      </trkpt>
      <trkpt lat="48.56579" lon="-3.40975">
        <ele>106.3</ele>
        <time>2014-03-10T14:22:10Z</time>
      </trkpt>
      <trkpt lat="48.56585" lon="-3.40986">
        <ele>105.3</ele>
        <time>2014-03-10T14:22:18Z</time>
      </trkpt>
      <trkpt lat="48.56593" lon="-3.40998">
        <ele>105.4</ele>
        <time>2014-03-10T14:22:33Z</time>
      </trkpt>
      <trkpt lat="48.56599" lon="-3.41009">
        <ele>106.2</ele>
        <time>2014-03-10T14:22:41Z</time>
      </trkpt>
      <trkpt lat="48.56608" lon="-3.41014">
        <ele>104.5</ele>
        <time>2014-03-10T14:22:48Z</time>
      </trkpt>
      <trkpt lat="48.56618" lon="-3.41025">
        <ele>105.6</ele>
        <time>2014-03-10T14:23:03Z</time>
      </trkpt>
      <trkpt lat="48.56626" lon="-3.41033">
        <ele>104.5</ele>
        <time>2014-03-10T14:23:13Z</time>
      </trkpt>
      <trkpt lat="48.56634" lon="-3.41041">
        <ele>104.9</ele>
        <time>2014-03-10T14:23:24Z</time>
      </trkpt>
      <trkpt lat="48.56642" lon="-3.41046">
        <ele>104.5</ele>
        <time>2014-03-10T14:23:32Z</time>
      </trkpt>
      <trkpt lat="48.56653" lon="-3.41045">
        <ele>104.2</ele>
        <time>2014-03-10T14:23:47Z</time>
      </trkpt>
      <trkpt lat="48.56662" lon="-3.41042">
        <ele>103.8</ele>
        <time>2014-03-10T14:23:57Z</time>
      </trkpt>
      <trkpt lat="48.56672" lon="-3.41044">
        <ele>103.4</ele>
        <time>2014-03-10T14:24:14Z</time>
      </trkpt>
      <trkpt lat="48.56681" lon="-3.41042">
        <ele>103.9</ele>
        <time>2014-03-10T14:24:30Z</time>
      </trkpt>
      <trkpt lat="48.56689" lon="-3.41035">
        <ele>103.8</ele>
        <time>2014-03-10T14:24:39Z</time>
      </trkpt>
      <trkpt lat="48.56701" lon="-3.41029">
        <ele>103.6</ele>
        <time>2014-03-10T14:24:50Z</time>
      </trkpt>
      <trkpt lat="48.56713" lon="-3.41023">
        <ele>104.2</ele>
        <time>2014-03-10T14:24:58Z</time>
      </trkpt>
      <trkpt lat="48.56722" lon="-3.41021">
        <ele>103.5</ele>
        <time>2014-03-10T14:25:11Z</time>
      </trkpt>
      <trkpt lat="48.56731" lon="-3.4102">
        <ele>103</ele>
        <time>2014-03-10T14:25:16Z</time>
      </trkpt>
      <trkpt lat="48.56741" lon="-3.4102">
        <ele>102.7</ele>
        <time>2014-03-10T14:25:27Z</time>
      </trkpt>
      <trkpt lat="48.56755" lon="-3.41012">
        <ele>102.7</ele>
        <time>2014-03-10T14:25:37Z</time>
      </trkpt>
      <trkpt lat="48.56759" lon="-3.41">
        <ele>101.7</ele>
        <time>2014-03-10T14:25:53Z</time>
      </trkpt>
      <trkpt lat="48.56769" lon="-3.40989">
        <ele>103.1</ele>
        <time>2014-03-10T14:26:07Z</time>
      </trkpt>
      <trkpt lat="48.56777" lon="-3.4098">
        <ele>103.3</ele>
        <time>2014-03-10T14:26:17Z</time>
      </trkpt>
      <trkpt lat="48.56789" lon="-3.40972">
        <ele>102.8</ele>
        <time>2014-03-10T14:26:30Z</time>
      </trkpt>
      <trkpt lat="48.568" lon="-3.40957">
        <ele>102</ele>
        <time>2014-03-10T14:26:38Z</time>
      </trkpt>
      <trkpt lat="48.56809" lon="-3.40951">
        <ele>103.2</ele>
        <time>2014-03-10T14:26:47Z</time>
      </trkpt>
      <trkpt lat="48.56818" lon="-3.4095">
        <ele>103.3</ele>
        <time>2014-03-10T14:26:56Z</time>
      </trkpt>
      <trkpt lat="48.56827" lon="-3.40951">
        <ele>102.6</ele>
        <time>2014-03-10T14:27:04Z</time>
      </trkpt>
      <trkpt lat="48.5684" lon="-3.40945">
        <ele>103</ele>
        <time>2014-03-10T14:27:17Z</time>
      </trkpt>
      <trkpt lat="48.5685" lon="-3.40938">
        <ele>102.6</ele>
        <time>2014-03-10T14:27:30Z</time>
      </trkpt>
      <trkpt lat="48.56859" lon="-3.40936">
        <ele>103.1</ele>
        <time>2014-03-10T14:27:38Z</time>
      </trkpt>
      <trkpt lat="48.5687" lon="-3.40931">
        <ele>101.5</ele>
        <time>2014-03-10T14:27:53Z</time>
      </trkpt>
      <trkpt lat="48.5688" lon="-3.40923">
        <ele>101.4</ele>
        <time>2014-03-10T14:28:01Z</time>
      </trkpt>
      <trkpt lat="48.5689" lon="-3.40926">
        <ele>101.7</ele>
        <time>2014-03-10T14:28:09Z</time>
      </trkpt>
      <trkpt lat="48.56898" lon="-3.40934">
        <ele>102.9</ele>
        <time>2014-03-10T14:28:21Z</time>
      </trkpt>
      <trkpt lat="48.56909" lon="-3.40934">
        <ele>102.9</ele>
        <time>2014-03-10T14:28:34Z</time>
      </trkpt>
      <trkpt lat="48.56919" lon="-3.40944">
        <ele>102</ele>
        <time>2014-03-10T14:28:42Z</time>
      </trkpt>
      <trkpt lat="48.56927" lon="-3.40951">
        <ele>100.6</ele>
        <time>2014-03-10T14:28:49Z</time>
      </trkpt>
      <trkpt lat="48.56934" lon="-3.40964">
        <ele>99.7</ele>
        <time>2014-03-10T14:28:57Z</time>
      </trkpt>
      <trkpt lat="48.56939" lon="-3.40978">
        <ele>97.8</ele>
        <time>2014-03-10T14:29:05Z</time>
      </trkpt>
      <trkpt lat="48.56943" lon="-3.40993">
        <ele>98.5</ele>
        <time>2014-03-10T14:29:13Z</time>
      </trkpt>
      <trkpt lat="48.56945" lon="-3.41009">
        <ele>95.4</ele>
        <time>2014-03-10T14:29:28Z</time>
      </trkpt>
      <trkpt lat="48.56954" lon="-3.41014">
        <ele>94.4</ele>
        <time>2014-03-10T14:29:36Z</time>
      </trkpt>
      <trkpt lat="48.56964" lon="-3.41014">
        <ele>93.4</ele>
        <time>2014-03-10T14:29:44Z</time>
      </trkpt>
      <trkpt lat="48.56973" lon="-3.41023">
        <ele>93.5</ele>
        <time>2014-03-10T14:29:59Z</time>
      </trkpt>
      <trkpt lat="48.56968" lon="-3.41045">
        <ele>91.1</ele>
        <time>2014-03-10T14:30:40Z</time>
      </trkpt>
      <trkpt lat="48.56958" lon="-3.41053">
        <ele>88.9</ele>
        <time>2014-03-10T14:31:12Z</time>
      </trkpt>
      <trkpt lat="48.56962" lon="-3.41041">
        <ele>86.9</ele>
        <time>2014-03-10T14:32:03Z</time>
      </trkpt>
      <trkpt lat="48.56952" lon="-3.41045">
        <ele>86.7</ele>
        <time>2014-03-10T14:32:18Z</time>
      </trkpt>
      <trkpt lat="48.5696" lon="-3.41035">
        <ele>85.8</ele>
        <time>2014-03-10T14:34:15Z</time>
      </trkpt>
      <trkpt lat="48.56953" lon="-3.41045">
        <ele>86.7</ele>
        <time>2014-03-10T14:34:57Z</time>
      </trkpt>
      <trkpt lat="48.56946" lon="-3.41054">
        <ele>86</ele>
        <time>2014-03-10T14:35:05Z</time>
      </trkpt>
      <trkpt lat="48.56941" lon="-3.41071">
        <ele>85.3</ele>
        <time>2014-03-10T14:35:31Z</time>
      </trkpt>
      <trkpt lat="48.56931" lon="-3.41085">
        <ele>85.7</ele>
        <time>2014-03-10T14:35:51Z</time>
      </trkpt>
      <trkpt lat="48.56941" lon="-3.4109">
        <ele>89.4</ele>
        <time>2014-03-10T14:36:35Z</time>
      </trkpt>
      <trkpt lat="48.56929" lon="-3.41076">
        <ele>87</ele>
        <time>2014-03-10T14:38:10Z</time>
      </trkpt>
      <trkpt lat="48.56921" lon="-3.41067">
        <ele>86.2</ele>
        <time>2014-03-10T14:38:28Z</time>
      </trkpt>
      <trkpt lat="48.56911" lon="-3.41059">
        <ele>86.4</ele>
        <time>2014-03-10T14:38:40Z</time>
      </trkpt>
      <trkpt lat="48.569" lon="-3.41062">
        <ele>86.4</ele>
        <time>2014-03-10T14:39:13Z</time>
      </trkpt>
      <trkpt lat="48.56891" lon="-3.41059">
        <ele>86.9</ele>
        <time>2014-03-10T14:39:22Z</time>
      </trkpt>
      <trkpt lat="48.5688" lon="-3.41059">
        <ele>89</ele>
        <time>2014-03-10T14:39:33Z</time>
      </trkpt>
      <trkpt lat="48.56872" lon="-3.41064">
        <ele>89.3</ele>
        <time>2014-03-10T14:39:50Z</time>
      </trkpt>
      <trkpt lat="48.56862" lon="-3.41064">
        <ele>86.6</ele>
        <time>2014-03-10T14:40:34Z</time>
      </trkpt>
      <trkpt lat="48.56851" lon="-3.41061">
        <ele>86.4</ele>
        <time>2014-03-10T14:40:44Z</time>
      </trkpt>
      <trkpt lat="48.56838" lon="-3.41054">
        <ele>84.9</ele>
        <time>2014-03-10T14:40:53Z</time>
      </trkpt>
      <trkpt lat="48.56828" lon="-3.41055">
        <ele>82.7</ele>
        <time>2014-03-10T14:41:01Z</time>
      </trkpt>
      <trkpt lat="48.56819" lon="-3.41054">
        <ele>83.9</ele>
        <time>2014-03-10T14:41:09Z</time>
      </trkpt>
      <trkpt lat="48.56809" lon="-3.41053">
        <ele>84.5</ele>
        <time>2014-03-10T14:41:17Z</time>
      </trkpt>
      <trkpt lat="48.568" lon="-3.41057">
        <ele>83.4</ele>
        <time>2014-03-10T14:41:25Z</time>
      </trkpt>
      <trkpt lat="48.56793" lon="-3.41067">
        <ele>81.2</ele>
        <time>2014-03-10T14:41:40Z</time>
      </trkpt>
      <trkpt lat="48.56786" lon="-3.41076">
        <ele>80.6</ele>
        <time>2014-03-10T14:41:54Z</time>
      </trkpt>
      <trkpt lat="48.5678" lon="-3.41087">
        <ele>82</ele>
        <time>2014-03-10T14:42:02Z</time>
      </trkpt>
      <trkpt lat="48.56774" lon="-3.41113">
        <ele>79.9</ele>
        <time>2014-03-10T14:42:14Z</time>
      </trkpt>
      <trkpt lat="48.56766" lon="-3.41122">
        <ele>80.8</ele>
        <time>2014-03-10T14:42:21Z</time>
      </trkpt>
      <trkpt lat="48.5676" lon="-3.41132">
        <ele>79.1</ele>
        <time>2014-03-10T14:42:31Z</time>
      </trkpt>
      <trkpt lat="48.5675" lon="-3.4113">
        <ele>77.7</ele>
        <time>2014-03-10T14:42:39Z</time>
      </trkpt>
      <trkpt lat="48.56742" lon="-3.41135">
        <ele>79.4</ele>
        <time>2014-03-10T14:42:46Z</time>
      </trkpt>
      <trkpt lat="48.56736" lon="-3.41146">
        <ele>79.9</ele>
        <time>2014-03-10T14:42:52Z</time>
      </trkpt>
      <trkpt lat="48.56725" lon="-3.41148">
        <ele>78.8</ele>
        <time>2014-03-10T14:43:00Z</time>
      </trkpt>
      <trkpt lat="48.56716" lon="-3.41144">
        <ele>79.9</ele>
        <time>2014-03-10T14:43:09Z</time>
      </trkpt>
      <trkpt lat="48.56707" lon="-3.41149">
        <ele>80.9</ele>
        <time>2014-03-10T14:43:18Z</time>
      </trkpt>
      <trkpt lat="48.56698" lon="-3.4115">
        <ele>79.1</ele>
        <time>2014-03-10T14:43:27Z</time>
      </trkpt>
      <trkpt lat="48.56686" lon="-3.41154">
        <ele>80.7</ele>
        <time>2014-03-10T14:43:38Z</time>
      </trkpt>
      <trkpt lat="48.56677" lon="-3.41152">
        <ele>81.7</ele>
        <time>2014-03-10T14:43:46Z</time>
      </trkpt>
      <trkpt lat="48.56666" lon="-3.41156">
        <ele>83.5</ele>
        <time>2014-03-10T14:44:00Z</time>
      </trkpt>
      <trkpt lat="48.56657" lon="-3.41155">
        <ele>83.6</ele>
        <time>2014-03-10T14:44:10Z</time>
      </trkpt>
      <trkpt lat="48.56648" lon="-3.41156">
        <ele>82.3</ele>
        <time>2014-03-10T14:44:20Z</time>
      </trkpt>
      <trkpt lat="48.56635" lon="-3.41155">
        <ele>82.5</ele>
        <time>2014-03-10T14:44:32Z</time>
      </trkpt>
      <trkpt lat="48.56627" lon="-3.41147">
        <ele>80.7</ele>
        <time>2014-03-10T14:44:42Z</time>
      </trkpt>
      <trkpt lat="48.56618" lon="-3.41143">
        <ele>82.6</ele>
        <time>2014-03-10T14:44:50Z</time>
      </trkpt>
      <trkpt lat="48.56608" lon="-3.41139">
        <ele>83.5</ele>
        <time>2014-03-10T14:44:59Z</time>
      </trkpt>
      <trkpt lat="48.56597" lon="-3.41134">
        <ele>81.7</ele>
        <time>2014-03-10T14:45:13Z</time>
      </trkpt>
      <trkpt lat="48.56586" lon="-3.41135">
        <ele>84.9</ele>
        <time>2014-03-10T14:45:35Z</time>
      </trkpt>
      <trkpt lat="48.56576" lon="-3.41131">
        <ele>82.8</ele>
        <time>2014-03-10T14:45:46Z</time>
      </trkpt>
      <trkpt lat="48.56563" lon="-3.41135">
        <ele>83.4</ele>
        <time>2014-03-10T14:45:57Z</time>
      </trkpt>
      <trkpt lat="48.56554" lon="-3.41131">
        <ele>83.6</ele>
        <time>2014-03-10T14:46:05Z</time>
      </trkpt>
      <trkpt lat="48.56546" lon="-3.4112">
        <ele>84.3</ele>
        <time>2014-03-10T14:46:18Z</time>
      </trkpt>
      <trkpt lat="48.56538" lon="-3.4111">
        <ele>82.2</ele>
        <time>2014-03-10T14:46:27Z</time>
      </trkpt>
      <trkpt lat="48.5653" lon="-3.41102">
        <ele>83.4</ele>
        <time>2014-03-10T14:46:34Z</time>
      </trkpt>
      <trkpt lat="48.56521" lon="-3.41096">
        <ele>82.5</ele>
        <time>2014-03-10T14:46:43Z</time>
      </trkpt>
      <trkpt lat="48.56513" lon="-3.41085">
        <ele>82.7</ele>
        <time>2014-03-10T14:46:50Z</time>
      </trkpt>
      <trkpt lat="48.56509" lon="-3.41072">
        <ele>83</ele>
        <time>2014-03-10T14:46:59Z</time>
      </trkpt>
      <trkpt lat="48.56501" lon="-3.41065">
        <ele>82.9</ele>
        <time>2014-03-10T14:47:07Z</time>
      </trkpt>
      <trkpt lat="48.56492" lon="-3.41054">
        <ele>83.3</ele>
        <time>2014-03-10T14:47:21Z</time>
      </trkpt>
      <trkpt lat="48.56483" lon="-3.41036">
        <ele>83.1</ele>
        <time>2014-03-10T14:47:38Z</time>
      </trkpt>
      <trkpt lat="48.56478" lon="-3.41025">
        <ele>82.9</ele>
        <time>2014-03-10T14:47:46Z</time>
      </trkpt>
      <trkpt lat="48.56469" lon="-3.41015">
        <ele>82.5</ele>
        <time>2014-03-10T14:47:54Z</time>
      </trkpt>
      <trkpt lat="48.56469" lon="-3.41">
        <ele>79</ele>
        <time>2014-03-10T14:48:10Z</time>
      </trkpt>
      <trkpt lat="48.56469" lon="-3.40985">
        <ele>82.1</ele>
        <time>2014-03-10T14:48:21Z</time>
      </trkpt>
      <trkpt lat="48.56467" lon="-3.40971">
        <ele>81.6</ele>
        <time>2014-03-10T14:48:36Z</time>
      </trkpt>
      <trkpt lat="48.56469" lon="-3.40955">
        <ele>81.5</ele>
        <time>2014-03-10T14:48:49Z</time>
      </trkpt>
      <trkpt lat="48.56474" lon="-3.40943">
        <ele>81.5</ele>
        <time>2014-03-10T14:48:57Z</time>
      </trkpt>
      <trkpt lat="48.5648" lon="-3.4093">
        <ele>83.3</ele>
        <time>2014-03-10T14:49:06Z</time>
      </trkpt>
      <trkpt lat="48.56484" lon="-3.40915">
        <ele>83.2</ele>
        <time>2014-03-10T14:49:14Z</time>
      </trkpt>
      <trkpt lat="48.56487" lon="-3.40899">
        <ele>81.5</ele>
        <time>2014-03-10T14:49:28Z</time>
      </trkpt>
      <trkpt lat="48.56496" lon="-3.40892">
        <ele>82.3</ele>
        <time>2014-03-10T14:50:01Z</time>
      </trkpt>
      <trkpt lat="48.56505" lon="-3.40883">
        <ele>81.5</ele>
        <time>2014-03-10T14:50:09Z</time>
      </trkpt>
      <trkpt lat="48.56512" lon="-3.40874">
        <ele>79.5</ele>
        <time>2014-03-10T14:50:15Z</time>
      </trkpt>
      <trkpt lat="48.56518" lon="-3.40864">
        <ele>81.8</ele>
        <time>2014-03-10T14:50:22Z</time>
      </trkpt>
      <trkpt lat="48.56524" lon="-3.40854">
        <ele>82.5</ele>
        <time>2014-03-10T14:50:32Z</time>
      </trkpt>
      <trkpt lat="48.56525" lon="-3.40839">
        <ele>83.6</ele>
        <time>2014-03-10T14:50:45Z</time>
      </trkpt>
      <trkpt lat="48.56536" lon="-3.40833">
        <ele>83.2</ele>
        <time>2014-03-10T14:51:09Z</time>
      </trkpt>
      <trkpt lat="48.56546" lon="-3.40827">
        <ele>82.5</ele>
        <time>2014-03-10T14:51:24Z</time>
      </trkpt>
      <trkpt lat="48.56555" lon="-3.4082">
        <ele>81.7</ele>
        <time>2014-03-10T14:51:39Z</time>
      </trkpt>
      <trkpt lat="48.56563" lon="-3.40812">
        <ele>81.5</ele>
        <time>2014-03-10T14:51:49Z</time>
      </trkpt>
      <trkpt lat="48.5657" lon="-3.40804">
        <ele>82.5</ele>
        <time>2014-03-10T14:52:00Z</time>
      </trkpt>
      <trkpt lat="48.56579" lon="-3.408">
        <ele>83</ele>
        <time>2014-03-10T14:52:18Z</time>
      </trkpt>
      <trkpt lat="48.56589" lon="-3.40798">
        <ele>81.6</ele>
        <time>2014-03-10T14:52:31Z</time>
      </trkpt>
      <trkpt lat="48.56598" lon="-3.40792">
        <ele>82</ele>
        <time>2014-03-10T14:52:38Z</time>
      </trkpt>
      <trkpt lat="48.56606" lon="-3.40786">
        <ele>80.4</ele>
        <time>2014-03-10T14:52:44Z</time>
      </trkpt>
      <trkpt lat="48.5662" lon="-3.40774">
        <ele>81.6</ele>
        <time>2014-03-10T14:52:52Z</time>
      </trkpt>
      <trkpt lat="48.56628" lon="-3.40767">
        <ele>82</ele>
        <time>2014-03-10T14:53:07Z</time>
      </trkpt>
      <trkpt lat="48.56637" lon="-3.40763">
        <ele>82.2</ele>
        <time>2014-03-10T14:53:20Z</time>
      </trkpt>
      <trkpt lat="48.56648" lon="-3.4075">
        <ele>83</ele>
        <time>2014-03-10T14:53:34Z</time>
      </trkpt>
      <trkpt lat="48.56655" lon="-3.4074">
        <ele>83.2</ele>
        <time>2014-03-10T14:53:43Z</time>
      </trkpt>
      <trkpt lat="48.56663" lon="-3.4073">
        <ele>82.9</ele>
        <time>2014-03-10T14:53:55Z</time>
      </trkpt>
      <trkpt lat="48.56672" lon="-3.40723">
        <ele>81.8</ele>
        <time>2014-03-10T14:54:03Z</time>
      </trkpt>
      <trkpt lat="48.5668" lon="-3.40714">
        <ele>81.1</ele>
        <time>2014-03-10T14:54:11Z</time>
      </trkpt>
      <trkpt lat="48.56688" lon="-3.40703">
        <ele>83.4</ele>
        <time>2014-03-10T14:54:24Z</time>
      </trkpt>
      <trkpt lat="48.56699" lon="-3.40696">
        <ele>83.2</ele>
        <time>2014-03-10T14:54:32Z</time>
      </trkpt>
      <trkpt lat="48.5671" lon="-3.40685">
        <ele>83.5</ele>
        <time>2014-03-10T14:54:41Z</time>
      </trkpt>
      <trkpt lat="48.5672" lon="-3.40678">
        <ele>83.6</ele>
        <time>2014-03-10T14:54:49Z</time>
      </trkpt>
      <trkpt lat="48.56731" lon="-3.40668">
        <ele>82.4</ele>
        <time>2014-03-10T14:54:57Z</time>
      </trkpt>
      <trkpt lat="48.56736" lon="-3.40656">
        <ele>81.3</ele>
        <time>2014-03-10T14:55:06Z</time>
      </trkpt>
      <trkpt lat="48.56734" lon="-3.40642">
        <ele>81.6</ele>
        <time>2014-03-10T14:55:15Z</time>
      </trkpt>
      <trkpt lat="48.56728" lon="-3.40627">
        <ele>83.6</ele>
        <time>2014-03-10T14:55:43Z</time>
      </trkpt>
      <trkpt lat="48.5672" lon="-3.4062">
        <ele>84</ele>
        <time>2014-03-10T14:55:58Z</time>
      </trkpt>
      <trkpt lat="48.56718" lon="-3.40606">
        <ele>80.7</ele>
        <time>2014-03-10T14:56:06Z</time>
      </trkpt>
      <trkpt lat="48.56716" lon="-3.40589">
        <ele>82.3</ele>
        <time>2014-03-10T14:56:20Z</time>
      </trkpt>
      <trkpt lat="48.56708" lon="-3.40575">
        <ele>83.3</ele>
        <time>2014-03-10T14:56:35Z</time>
      </trkpt>
      <trkpt lat="48.567" lon="-3.40566">
        <ele>80.7</ele>
        <time>2014-03-10T14:56:45Z</time>
      </trkpt>
      <trkpt lat="48.56693" lon="-3.40557">
        <ele>83.4</ele>
        <time>2014-03-10T14:56:59Z</time>
      </trkpt>
      <trkpt lat="48.56686" lon="-3.40543">
        <ele>83.8</ele>
        <time>2014-03-10T14:57:12Z</time>
      </trkpt>
      <trkpt lat="48.56679" lon="-3.40534">
        <ele>84.6</ele>
        <time>2014-03-10T14:57:20Z</time>
      </trkpt>
      <trkpt lat="48.56671" lon="-3.40519">
        <ele>84.3</ele>
        <time>2014-03-10T14:57:33Z</time>
      </trkpt>
      <trkpt lat="48.56666" lon="-3.40508">
        <ele>82.7</ele>
        <time>2014-03-10T14:57:43Z</time>
      </trkpt>
      <trkpt lat="48.5666" lon="-3.40498">
        <ele>83.8</ele>
        <time>2014-03-10T14:57:50Z</time>
      </trkpt>
      <trkpt lat="48.56654" lon="-3.40486">
        <ele>80.5</ele>
        <time>2014-03-10T14:58:00Z</time>
      </trkpt>
      <trkpt lat="48.56647" lon="-3.40478">
        <ele>82.7</ele>
        <time>2014-03-10T14:58:12Z</time>
      </trkpt>
      <trkpt lat="48.5664" lon="-3.40468">
        <ele>83.4</ele>
        <time>2014-03-10T14:58:26Z</time>
      </trkpt>
      <trkpt lat="48.56631" lon="-3.40462">
        <ele>82.2</ele>
        <time>2014-03-10T14:58:35Z</time>
      </trkpt>
      <trkpt lat="48.56623" lon="-3.40456">
        <ele>81.8</ele>
        <time>2014-03-10T14:58:43Z</time>
      </trkpt>
      <trkpt lat="48.56614" lon="-3.40452">
        <ele>82.4</ele>
        <time>2014-03-10T14:58:52Z</time>
      </trkpt>
      <trkpt lat="48.56604" lon="-3.40454">
        <ele>84</ele>
        <time>2014-03-10T14:59:00Z</time>
      </trkpt>
      <trkpt lat="48.56596" lon="-3.4045">
        <ele>84</ele>
        <time>2014-03-10T14:59:09Z</time>
      </trkpt>
      <trkpt lat="48.5656" lon="-3.40445">
        <ele>82.7</ele>
        <time>2014-03-10T14:59:55Z</time>
      </trkpt>
      <trkpt lat="48.56549" lon="-3.40437">
        <ele>82.3</ele>
        <time>2014-03-10T15:00:03Z</time>
      </trkpt>
      <trkpt lat="48.5654" lon="-3.40431">
        <ele>83.7</ele>
        <time>2014-03-10T15:00:13Z</time>
      </trkpt>
      <trkpt lat="48.56531" lon="-3.40427">
        <ele>83.9</ele>
        <time>2014-03-10T15:00:18Z</time>
      </trkpt>
      <trkpt lat="48.5652" lon="-3.40429">
        <ele>84</ele>
        <time>2014-03-10T15:00:26Z</time>
      </trkpt>
      <trkpt lat="48.56507" lon="-3.40427">
        <ele>84.2</ele>
        <time>2014-03-10T15:00:35Z</time>
      </trkpt>
      <trkpt lat="48.56498" lon="-3.4043">
        <ele>84.9</ele>
        <time>2014-03-10T15:00:45Z</time>
      </trkpt>
      <trkpt lat="48.56486" lon="-3.40427">
        <ele>83.1</ele>
        <time>2014-03-10T15:00:57Z</time>
      </trkpt>
      <trkpt lat="48.56476" lon="-3.40428">
        <ele>85.1</ele>
        <time>2014-03-10T15:01:06Z</time>
      </trkpt>
      <trkpt lat="48.56468" lon="-3.40433">
        <ele>85.5</ele>
        <time>2014-03-10T15:01:14Z</time>
      </trkpt>
      <trkpt lat="48.56458" lon="-3.40434">
        <ele>85.6</ele>
        <time>2014-03-10T15:01:24Z</time>
      </trkpt>
      <trkpt lat="48.56448" lon="-3.40442">
        <ele>85.1</ele>
        <time>2014-03-10T15:01:39Z</time>
      </trkpt>
      <trkpt lat="48.5644" lon="-3.4045">
        <ele>85.9</ele>
        <time>2014-03-10T15:01:56Z</time>
      </trkpt>
      <trkpt lat="48.56429" lon="-3.40455">
        <ele>83.8</ele>
        <time>2014-03-10T15:02:10Z</time>
      </trkpt>
      <trkpt lat="48.5642" lon="-3.40464">
        <ele>83.9</ele>
        <time>2014-03-10T15:02:23Z</time>
      </trkpt>
      <trkpt lat="48.56411" lon="-3.40472">
        <ele>83.1</ele>
        <time>2014-03-10T15:02:39Z</time>
      </trkpt>
      <trkpt lat="48.56402" lon="-3.40469">
        <ele>82.8</ele>
        <time>2014-03-10T15:02:48Z</time>
      </trkpt>
      <trkpt lat="48.56393" lon="-3.40476">
        <ele>83.7</ele>
        <time>2014-03-10T15:03:08Z</time>
      </trkpt>
      <trkpt lat="48.56383" lon="-3.40475">
        <ele>84.6</ele>
        <time>2014-03-10T15:03:25Z</time>
      </trkpt>
      <trkpt lat="48.56376" lon="-3.40467">
        <ele>84.8</ele>
        <time>2014-03-10T15:03:43Z</time>
      </trkpt>
      <trkpt lat="48.56367" lon="-3.40458">
        <ele>82.5</ele>
        <time>2014-03-10T15:03:54Z</time>
      </trkpt>
      <trkpt lat="48.56354" lon="-3.40449">
        <ele>84</ele>
        <time>2014-03-10T15:04:07Z</time>
      </trkpt>
      <trkpt lat="48.56347" lon="-3.40439">
        <ele>83.6</ele>
        <time>2014-03-10T15:04:24Z</time>
      </trkpt>
      <trkpt lat="48.56339" lon="-3.40427">
        <ele>84.4</ele>
        <time>2014-03-10T15:04:36Z</time>
      </trkpt>
      <trkpt lat="48.5633" lon="-3.40417">
        <ele>83.4</ele>
        <time>2014-03-10T15:04:44Z</time>
      </trkpt>
      <trkpt lat="48.5631" lon="-3.40397">
        <ele>84</ele>
        <time>2014-03-10T15:06:01Z</time>
      </trkpt>
      <trkpt lat="48.56303" lon="-3.40389">
        <ele>89.3</ele>
        <time>2014-03-10T15:06:38Z</time>
      </trkpt>
      <trkpt lat="48.56294" lon="-3.40397">
        <ele>91</ele>
        <time>2014-03-10T15:06:59Z</time>
      </trkpt>
      <trkpt lat="48.56287" lon="-3.4041">
        <ele>96.1</ele>
        <time>2014-03-10T15:07:25Z</time>
      </trkpt>
      <trkpt lat="48.56277" lon="-3.40404">
        <ele>98.2</ele>
        <time>2014-03-10T15:07:38Z</time>
      </trkpt>
      <trkpt lat="48.56269" lon="-3.40394">
        <ele>102.5</ele>
        <time>2014-03-10T15:08:04Z</time>
      </trkpt>
      <trkpt lat="48.5625" lon="-3.4038">
        <ele>101.5</ele>
        <time>2014-03-10T15:08:16Z</time>
      </trkpt>
      <trkpt lat="48.56242" lon="-3.40372">
        <ele>101.3</ele>
        <time>2014-03-10T15:08:25Z</time>
      </trkpt>
      <trkpt lat="48.56234" lon="-3.40364">
        <ele>104.8</ele>
        <time>2014-03-10T15:08:34Z</time>
      </trkpt>
      <trkpt lat="48.56223" lon="-3.40353">
        <ele>104.9</ele>
        <time>2014-03-10T15:08:47Z</time>
      </trkpt>
      <trkpt lat="48.56217" lon="-3.40338">
        <ele>106.7</ele>
        <time>2014-03-10T15:09:00Z</time>
      </trkpt>
      <trkpt lat="48.56214" lon="-3.40324">
        <ele>109.1</ele>
        <time>2014-03-10T15:09:16Z</time>
      </trkpt>
      <trkpt lat="48.56214" lon="-3.40309">
        <ele>109.5</ele>
        <time>2014-03-10T15:09:31Z</time>
      </trkpt>
      <trkpt lat="48.56209" lon="-3.40297">
        <ele>106.7</ele>
        <time>2014-03-10T15:09:42Z</time>
      </trkpt>
      <trkpt lat="48.56204" lon="-3.40285">
        <ele>108.6</ele>
        <time>2014-03-10T15:09:54Z</time>
      </trkpt>
      <trkpt lat="48.56194" lon="-3.40273">
        <ele>108.1</ele>
        <time>2014-03-10T15:10:06Z</time>
      </trkpt>
      <trkpt lat="48.56186" lon="-3.40269">
        <ele>107.6</ele>
        <time>2014-03-10T15:10:18Z</time>
      </trkpt>
      <trkpt lat="48.56183" lon="-3.40253">
        <ele>105</ele>
        <time>2014-03-10T15:10:38Z</time>
      </trkpt>
      <trkpt lat="48.56182" lon="-3.4024">
        <ele>102.4</ele>
        <time>2014-03-10T15:10:49Z</time>
      </trkpt>
      <trkpt lat="48.56182" lon="-3.40226">
        <ele>100.3</ele>
        <time>2014-03-10T15:11:00Z</time>
      </trkpt>
      <trkpt lat="48.56178" lon="-3.40207">
        <ele>95.3</ele>
        <time>2014-03-10T15:11:17Z</time>
      </trkpt>
      <trkpt lat="48.56168" lon="-3.40209">
        <ele>95.4</ele>
        <time>2014-03-10T15:11:40Z</time>
      </trkpt>
      <trkpt lat="48.56157" lon="-3.40214">
        <ele>100.4</ele>
        <time>2014-03-10T15:12:03Z</time>
      </trkpt>
      <trkpt lat="48.56152" lon="-3.40225">
        <ele>103.8</ele>
        <time>2014-03-10T15:12:19Z</time>
      </trkpt>
      <trkpt lat="48.56156" lon="-3.40211">
        <ele>105.8</ele>
        <time>2014-03-10T15:12:32Z</time>
      </trkpt>
      <trkpt lat="48.56163" lon="-3.40199">
        <ele>106.1</ele>
        <time>2014-03-10T15:12:43Z</time>
      </trkpt>
      <trkpt lat="48.5617" lon="-3.40185">
        <ele>105.7</ele>
        <time>2014-03-10T15:12:56Z</time>
      </trkpt>
      <trkpt lat="48.56169" lon="-3.40171">
        <ele>103.7</ele>
        <time>2014-03-10T15:13:04Z</time>
      </trkpt>
      <trkpt lat="48.56169" lon="-3.40154">
        <ele>100.9</ele>
        <time>2014-03-10T15:13:17Z</time>
      </trkpt>
      <trkpt lat="48.56168" lon="-3.40139">
        <ele>98.9</ele>
        <time>2014-03-10T15:13:26Z</time>
      </trkpt>
      <trkpt lat="48.56169" lon="-3.40126">
        <ele>96.2</ele>
        <time>2014-03-10T15:13:36Z</time>
      </trkpt>
      <trkpt lat="48.56173" lon="-3.40107">
        <ele>95.4</ele>
        <time>2014-03-10T15:13:47Z</time>
      </trkpt>
      <trkpt lat="48.56169" lon="-3.40089">
        <ele>93</ele>
        <time>2014-03-10T15:14:03Z</time>
      </trkpt>
      <trkpt lat="48.56154" lon="-3.40076">
        <ele>91.4</ele>
        <time>2014-03-10T15:14:37Z</time>
      </trkpt>
      <trkpt lat="48.5615" lon="-3.4006">
        <ele>98.6</ele>
        <time>2014-03-10T15:14:52Z</time>
      </trkpt>
      <trkpt lat="48.56142" lon="-3.40054">
        <ele>100.8</ele>
        <time>2014-03-10T15:15:09Z</time>
      </trkpt>
      <trkpt lat="48.56132" lon="-3.40047">
        <ele>99.9</ele>
        <time>2014-03-10T15:15:23Z</time>
      </trkpt>
      <trkpt lat="48.56123" lon="-3.40041">
        <ele>103</ele>
        <time>2014-03-10T15:15:35Z</time>
      </trkpt>
      <trkpt lat="48.56115" lon="-3.40036">
        <ele>107.2</ele>
        <time>2014-03-10T15:15:57Z</time>
      </trkpt>
      <trkpt lat="48.56103" lon="-3.40035">
        <ele>107.3</ele>
        <time>2014-03-10T15:16:11Z</time>
      </trkpt>
      <trkpt lat="48.56094" lon="-3.40029">
        <ele>109</ele>
        <time>2014-03-10T15:16:29Z</time>
      </trkpt>
      <trkpt lat="48.5609" lon="-3.40015">
        <ele>109.7</ele>
        <time>2014-03-10T15:17:39Z</time>
      </trkpt>
      <trkpt lat="48.56084" lon="-3.40005">
        <ele>108</ele>
        <time>2014-03-10T15:17:51Z</time>
      </trkpt>
      <trkpt lat="48.56077" lon="-3.39995">
        <ele>105.1</ele>
        <time>2014-03-10T15:18:12Z</time>
      </trkpt>
      <trkpt lat="48.56063" lon="-3.39987">
        <ele>104.1</ele>
        <time>2014-03-10T15:18:25Z</time>
      </trkpt>
      <trkpt lat="48.56055" lon="-3.39979">
        <ele>101.5</ele>
        <time>2014-03-10T15:18:48Z</time>
      </trkpt>
      <trkpt lat="48.56049" lon="-3.39969">
        <ele>99.9</ele>
        <time>2014-03-10T15:19:11Z</time>
      </trkpt>
      <trkpt lat="48.56053" lon="-3.39955">
        <ele>98.1</ele>
        <time>2014-03-10T15:19:27Z</time>
      </trkpt>
      <trkpt lat="48.56058" lon="-3.39941">
        <ele>96.1</ele>
        <time>2014-03-10T15:19:41Z</time>
      </trkpt>
      <trkpt lat="48.56061" lon="-3.39927">
        <ele>92.2</ele>
        <time>2014-03-10T15:19:57Z</time>
      </trkpt>
      <trkpt lat="48.5606" lon="-3.39912">
        <ele>89.7</ele>
        <time>2014-03-10T15:20:33Z</time>
      </trkpt>
      <trkpt lat="48.56052" lon="-3.39903">
        <ele>93.1</ele>
        <time>2014-03-10T15:20:54Z</time>
      </trkpt>
      <trkpt lat="48.5606" lon="-3.39885">
        <ele>93.2</ele>
        <time>2014-03-10T15:21:09Z</time>
      </trkpt>
      <trkpt lat="48.56067" lon="-3.39871">
        <ele>94.7</ele>
        <time>2014-03-10T15:21:18Z</time>
      </trkpt>
      <trkpt lat="48.56072" lon="-3.39859">
        <ele>94.3</ele>
        <time>2014-03-10T15:21:28Z</time>
      </trkpt>
      <trkpt lat="48.56075" lon="-3.39843">
        <ele>93.5</ele>
        <time>2014-03-10T15:21:39Z</time>
      </trkpt>
      <trkpt lat="48.56081" lon="-3.39829">
        <ele>93.6</ele>
        <time>2014-03-10T15:21:51Z</time>
      </trkpt>
      <trkpt lat="48.56079" lon="-3.39815">
        <ele>93.2</ele>
        <time>2014-03-10T15:21:58Z</time>
      </trkpt>
      <trkpt lat="48.56078" lon="-3.39798">
        <ele>90.9</ele>
        <time>2014-03-10T15:22:11Z</time>
      </trkpt>
      <trkpt lat="48.56076" lon="-3.39784">
        <ele>90.8</ele>
        <time>2014-03-10T15:22:20Z</time>
      </trkpt>
      <trkpt lat="48.56072" lon="-3.39765">
        <ele>92.5</ele>
        <time>2014-03-10T15:22:34Z</time>
      </trkpt>
      <trkpt lat="48.56066" lon="-3.39752">
        <ele>93.7</ele>
        <time>2014-03-10T15:22:43Z</time>
      </trkpt>
      <trkpt lat="48.56068" lon="-3.39739">
        <ele>92.8</ele>
        <time>2014-03-10T15:23:03Z</time>
      </trkpt>
      <trkpt lat="48.56066" lon="-3.39724">
        <ele>90.2</ele>
        <time>2014-03-10T15:23:13Z</time>
      </trkpt>
      <trkpt lat="48.56066" lon="-3.39709">
        <ele>87.5</ele>
        <time>2014-03-10T15:23:27Z</time>
      </trkpt>
      <trkpt lat="48.56063" lon="-3.39697">
        <ele>87.9</ele>
        <time>2014-03-10T15:23:36Z</time>
      </trkpt>
      <trkpt lat="48.56057" lon="-3.39686">
        <ele>86.9</ele>
        <time>2014-03-10T15:23:46Z</time>
      </trkpt>
      <trkpt lat="48.56049" lon="-3.39677">
        <ele>86.7</ele>
        <time>2014-03-10T15:23:57Z</time>
      </trkpt>
      <trkpt lat="48.56042" lon="-3.39667">
        <ele>87.1</ele>
        <time>2014-03-10T15:24:05Z</time>
      </trkpt>
      <trkpt lat="48.56034" lon="-3.39659">
        <ele>88.1</ele>
        <time>2014-03-10T15:24:14Z</time>
      </trkpt>
      <trkpt lat="48.56025" lon="-3.39652">
        <ele>86.6</ele>
        <time>2014-03-10T15:24:32Z</time>
      </trkpt>
      <trkpt lat="48.56011" lon="-3.3965">
        <ele>86</ele>
        <time>2014-03-10T15:24:46Z</time>
      </trkpt>
      <trkpt lat="48.55999" lon="-3.39653">
        <ele>85.2</ele>
        <time>2014-03-10T15:24:55Z</time>
      </trkpt>
      <trkpt lat="48.5599" lon="-3.39654">
        <ele>86</ele>
        <time>2014-03-10T15:25:03Z</time>
      </trkpt>
      <trkpt lat="48.5598" lon="-3.39656">
        <ele>87.8</ele>
        <time>2014-03-10T15:25:12Z</time>
      </trkpt>
      <trkpt lat="48.55969" lon="-3.39664">
        <ele>86.4</ele>
        <time>2014-03-10T15:25:20Z</time>
      </trkpt>
      <trkpt lat="48.55961" lon="-3.39657">
        <ele>87.1</ele>
        <time>2014-03-10T15:25:28Z</time>
      </trkpt>
      <trkpt lat="48.55952" lon="-3.39651">
        <ele>87.3</ele>
        <time>2014-03-10T15:25:37Z</time>
      </trkpt>
      <trkpt lat="48.55941" lon="-3.39654">
        <ele>86.9</ele>
        <time>2014-03-10T15:25:54Z</time>
      </trkpt>
      <trkpt lat="48.55932" lon="-3.39659">
        <ele>86.1</ele>
        <time>2014-03-10T15:26:04Z</time>
      </trkpt>
      <trkpt lat="48.55927" lon="-3.39672">
        <ele>85.1</ele>
        <time>2014-03-10T15:26:21Z</time>
      </trkpt>
      <trkpt lat="48.55926" lon="-3.39686">
        <ele>87.8</ele>
        <time>2014-03-10T15:26:29Z</time>
      </trkpt>
      <trkpt lat="48.5592" lon="-3.39697">
        <ele>88.6</ele>
        <time>2014-03-10T15:26:37Z</time>
      </trkpt>
      <trkpt lat="48.55914" lon="-3.39708">
        <ele>90.4</ele>
        <time>2014-03-10T15:26:45Z</time>
      </trkpt>
      <trkpt lat="48.55906" lon="-3.39714">
        <ele>90.3</ele>
        <time>2014-03-10T15:26:54Z</time>
      </trkpt>
      <trkpt lat="48.55899" lon="-3.39723">
        <ele>89</ele>
        <time>2014-03-10T15:27:04Z</time>
      </trkpt>
      <trkpt lat="48.5589" lon="-3.3973">
        <ele>90</ele>
        <time>2014-03-10T15:27:16Z</time>
      </trkpt>
      <trkpt lat="48.55879" lon="-3.39739">
        <ele>89.7</ele>
        <time>2014-03-10T15:27:29Z</time>
      </trkpt>
      <trkpt lat="48.5587" lon="-3.39744">
        <ele>90.7</ele>
        <time>2014-03-10T15:27:39Z</time>
      </trkpt>
      <trkpt lat="48.55863" lon="-3.39753">
        <ele>91.3</ele>
        <time>2014-03-10T15:27:52Z</time>
      </trkpt>
      <trkpt lat="48.55871" lon="-3.39746">
        <ele>93.6</ele>
        <time>2014-03-10T15:28:36Z</time>
      </trkpt>
      <trkpt lat="48.55883" lon="-3.39744">
        <ele>92.4</ele>
        <time>2014-03-10T15:28:51Z</time>
      </trkpt>
      <trkpt lat="48.55894" lon="-3.39737">
        <ele>91.9</ele>
        <time>2014-03-10T15:29:05Z</time>
      </trkpt>
      <trkpt lat="48.55905" lon="-3.39734">
        <ele>93.6</ele>
        <time>2014-03-10T15:29:14Z</time>
      </trkpt>
      <trkpt lat="48.55914" lon="-3.39729">
        <ele>99.5</ele>
        <time>2014-03-10T15:29:23Z</time>
      </trkpt>
      <trkpt lat="48.55923" lon="-3.39724">
        <ele>101.9</ele>
        <time>2014-03-10T15:29:31Z</time>
      </trkpt>
      <trkpt lat="48.55935" lon="-3.39719">
        <ele>102.3</ele>
        <time>2014-03-10T15:29:44Z</time>
      </trkpt>
      <trkpt lat="48.55945" lon="-3.39731">
        <ele>102.9</ele>
        <time>2014-03-10T15:29:53Z</time>
      </trkpt>
      <trkpt lat="48.55946" lon="-3.39747">
        <ele>105.1</ele>
        <time>2014-03-10T15:30:13Z</time>
      </trkpt>
      <trkpt lat="48.55938" lon="-3.39756">
        <ele>105.4</ele>
        <time>2014-03-10T15:30:22Z</time>
      </trkpt>
      <trkpt lat="48.5593" lon="-3.39763">
        <ele>105.7</ele>
        <time>2014-03-10T15:30:31Z</time>
      </trkpt>
      <trkpt lat="48.55918" lon="-3.39773">
        <ele>107</ele>
        <time>2014-03-10T15:30:45Z</time>
      </trkpt>
      <trkpt lat="48.5591" lon="-3.39784">
        <ele>105.6</ele>
        <time>2014-03-10T15:30:53Z</time>
      </trkpt>
      <trkpt lat="48.55904" lon="-3.39795">
        <ele>104.8</ele>
        <time>2014-03-10T15:31:04Z</time>
      </trkpt>
      <trkpt lat="48.55902" lon="-3.39809">
        <ele>108.2</ele>
        <time>2014-03-10T15:31:15Z</time>
      </trkpt>
      <trkpt lat="48.559" lon="-3.39823">
        <ele>107.4</ele>
        <time>2014-03-10T15:31:24Z</time>
      </trkpt>
      <trkpt lat="48.55896" lon="-3.39838">
        <ele>110.8</ele>
        <time>2014-03-10T15:31:42Z</time>
      </trkpt>
      <trkpt lat="48.55887" lon="-3.39841">
        <ele>113</ele>
        <time>2014-03-10T15:31:53Z</time>
      </trkpt>
      <trkpt lat="48.55883" lon="-3.39857">
        <ele>116</ele>
        <time>2014-03-10T15:32:27Z</time>
      </trkpt>
      <trkpt lat="48.55876" lon="-3.39866">
        <ele>118.9</ele>
        <time>2014-03-10T15:32:50Z</time>
      </trkpt>
      <trkpt lat="48.55868" lon="-3.39875">
        <ele>118.4</ele>
        <time>2014-03-10T15:34:55Z</time>
      </trkpt>
      <trkpt lat="48.55861" lon="-3.39884">
        <ele>120.1</ele>
        <time>2014-03-10T15:35:06Z</time>
      </trkpt>
      <trkpt lat="48.55854" lon="-3.39894">
        <ele>124</ele>
        <time>2014-03-10T15:35:21Z</time>
      </trkpt>
      <trkpt lat="48.55845" lon="-3.39904">
        <ele>127.1</ele>
        <time>2014-03-10T15:35:35Z</time>
      </trkpt>
      <trkpt lat="48.55836" lon="-3.39907">
        <ele>128.8</ele>
        <time>2014-03-10T15:35:52Z</time>
      </trkpt>
      <trkpt lat="48.55831" lon="-3.39893">
        <ele>128.9</ele>
        <time>2014-03-10T15:36:14Z</time>
      </trkpt>
      <trkpt lat="48.55832" lon="-3.39879">
        <ele>127</ele>
        <time>2014-03-10T15:36:30Z</time>
      </trkpt>
      <trkpt lat="48.55833" lon="-3.39865">
        <ele>125.9</ele>
        <time>2014-03-10T15:36:40Z</time>
      </trkpt>
      <trkpt lat="48.5583" lon="-3.39851">
        <ele>123.9</ele>
        <time>2014-03-10T15:36:52Z</time>
      </trkpt>
      <trkpt lat="48.55824" lon="-3.39839">
        <ele>122.8</ele>
        <time>2014-03-10T15:37:01Z</time>
      </trkpt>
      <trkpt lat="48.55815" lon="-3.39834">
        <ele>122</ele>
        <time>2014-03-10T15:37:13Z</time>
      </trkpt>
      <trkpt lat="48.55806" lon="-3.39833">
        <ele>120.4</ele>
        <time>2014-03-10T15:37:21Z</time>
      </trkpt>
      <trkpt lat="48.55796" lon="-3.39836">
        <ele>120.1</ele>
        <time>2014-03-10T15:37:32Z</time>
      </trkpt>
      <trkpt lat="48.55787" lon="-3.39841">
        <ele>121</ele>
        <time>2014-03-10T15:37:44Z</time>
      </trkpt>
      <trkpt lat="48.55778" lon="-3.39844">
        <ele>120.1</ele>
        <time>2014-03-10T15:37:53Z</time>
      </trkpt>
      <trkpt lat="48.55769" lon="-3.39853">
        <ele>117.2</ele>
        <time>2014-03-10T15:39:42Z</time>
      </trkpt>
      <trkpt lat="48.55761" lon="-3.39865">
        <ele>119.3</ele>
        <time>2014-03-10T15:39:55Z</time>
      </trkpt>
      <trkpt lat="48.55755" lon="-3.39879">
        <ele>119</ele>
        <time>2014-03-10T15:40:07Z</time>
      </trkpt>
      <trkpt lat="48.55747" lon="-3.39891">
        <ele>117.5</ele>
        <time>2014-03-10T15:40:20Z</time>
      </trkpt>
      <trkpt lat="48.55738" lon="-3.39898">
        <ele>119.4</ele>
        <time>2014-03-10T15:40:29Z</time>
      </trkpt>
      <trkpt lat="48.55726" lon="-3.39906">
        <ele>119.6</ele>
        <time>2014-03-10T15:40:40Z</time>
      </trkpt>
      <trkpt lat="48.55715" lon="-3.39916">
        <ele>119.9</ele>
        <time>2014-03-10T15:40:53Z</time>
      </trkpt>
      <trkpt lat="48.55705" lon="-3.39921">
        <ele>119.8</ele>
        <time>2014-03-10T15:41:02Z</time>
      </trkpt>
      <trkpt lat="48.55699" lon="-3.3993">
        <ele>119.1</ele>
        <time>2014-03-10T15:41:10Z</time>
      </trkpt>
      <trkpt lat="48.5569" lon="-3.39941">
        <ele>119.7</ele>
        <time>2014-03-10T15:41:38Z</time>
      </trkpt>
      <trkpt lat="48.55684" lon="-3.39954">
        <ele>119.6</ele>
        <time>2014-03-10T15:41:50Z</time>
      </trkpt>
      <trkpt lat="48.5568" lon="-3.3997">
        <ele>118</ele>
        <time>2014-03-10T15:42:53Z</time>
      </trkpt>
      <trkpt lat="48.55672" lon="-3.39957">
        <ele>115.8</ele>
        <time>2014-03-10T15:43:08Z</time>
      </trkpt>
      <trkpt lat="48.55663" lon="-3.3995">
        <ele>112.1</ele>
        <time>2014-03-10T15:43:18Z</time>
      </trkpt>
      <trkpt lat="48.55648" lon="-3.3996">
        <ele>106.3</ele>
        <time>2014-03-10T15:43:54Z</time>
      </trkpt>
      <trkpt lat="48.5564" lon="-3.39956">
        <ele>104.7</ele>
        <time>2014-03-10T15:44:02Z</time>
      </trkpt>
      <trkpt lat="48.55629" lon="-3.39951">
        <ele>104.9</ele>
        <time>2014-03-10T15:44:16Z</time>
      </trkpt>
      <trkpt lat="48.55619" lon="-3.39952">
        <ele>104.9</ele>
        <time>2014-03-10T15:44:24Z</time>
      </trkpt>
      <trkpt lat="48.55609" lon="-3.39956">
        <ele>102.1</ele>
        <time>2014-03-10T15:44:37Z</time>
      </trkpt>
      <trkpt lat="48.55599" lon="-3.39954">
        <ele>103.4</ele>
        <time>2014-03-10T15:44:50Z</time>
      </trkpt>
      <trkpt lat="48.55591" lon="-3.39946">
        <ele>101.7</ele>
        <time>2014-03-10T15:45:08Z</time>
      </trkpt>
      <trkpt lat="48.55578" lon="-3.39941">
        <ele>100.9</ele>
        <time>2014-03-10T15:45:21Z</time>
      </trkpt>
      <trkpt lat="48.55565" lon="-3.39939">
        <ele>99.7</ele>
        <time>2014-03-10T15:45:33Z</time>
      </trkpt>
      <trkpt lat="48.55551" lon="-3.39933">
        <ele>99.8</ele>
        <time>2014-03-10T15:45:40Z</time>
      </trkpt>
      <trkpt lat="48.55548" lon="-3.39918">
        <ele>97.5</ele>
        <time>2014-03-10T15:45:56Z</time>
      </trkpt>
      <trkpt lat="48.55537" lon="-3.39909">
        <ele>95.2</ele>
        <time>2014-03-10T15:46:09Z</time>
      </trkpt>
      <trkpt lat="48.55529" lon="-3.399">
        <ele>92.9</ele>
        <time>2014-03-10T15:46:22Z</time>
      </trkpt>
      <trkpt lat="48.5552" lon="-3.39895">
        <ele>90.8</ele>
        <time>2014-03-10T15:46:38Z</time>
      </trkpt>
      <trkpt lat="48.55508" lon="-3.39894">
        <ele>91.4</ele>
        <time>2014-03-10T15:46:49Z</time>
      </trkpt>
      <trkpt lat="48.55498" lon="-3.39891">
        <ele>91.3</ele>
        <time>2014-03-10T15:46:57Z</time>
      </trkpt>
      <trkpt lat="48.5549" lon="-3.39887">
        <ele>91.7</ele>
        <time>2014-03-10T15:47:04Z</time>
      </trkpt>
      <trkpt lat="48.5548" lon="-3.39878">
        <ele>92</ele>
        <time>2014-03-10T15:47:15Z</time>
      </trkpt>
      <trkpt lat="48.55467" lon="-3.39874">
        <ele>90.9</ele>
        <time>2014-03-10T15:47:40Z</time>
      </trkpt>
      <trkpt lat="48.55454" lon="-3.3988">
        <ele>89.2</ele>
        <time>2014-03-10T15:47:54Z</time>
      </trkpt>
      <trkpt lat="48.55445" lon="-3.39881">
        <ele>90.3</ele>
        <time>2014-03-10T15:48:01Z</time>
      </trkpt>
      <trkpt lat="48.55435" lon="-3.39881">
        <ele>89.9</ele>
        <time>2014-03-10T15:48:09Z</time>
      </trkpt>
      <trkpt lat="48.55426" lon="-3.39879">
        <ele>89.7</ele>
        <time>2014-03-10T15:48:15Z</time>
      </trkpt>
      <trkpt lat="48.55416" lon="-3.39877">
        <ele>89.9</ele>
        <time>2014-03-10T15:48:20Z</time>
      </trkpt>
      <trkpt lat="48.55403" lon="-3.39876">
        <ele>90.2</ele>
        <time>2014-03-10T15:48:30Z</time>
      </trkpt>
      <trkpt lat="48.55394" lon="-3.39872">
        <ele>90.4</ele>
        <time>2014-03-10T15:48:38Z</time>
      </trkpt>
      <trkpt lat="48.55385" lon="-3.39865">
        <ele>89.5</ele>
        <time>2014-03-10T15:48:45Z</time>
      </trkpt>
      <trkpt lat="48.55378" lon="-3.39856">
        <ele>90.1</ele>
        <time>2014-03-10T15:48:53Z</time>
      </trkpt>
      <trkpt lat="48.55365" lon="-3.39855">
        <ele>90.6</ele>
        <time>2014-03-10T15:49:00Z</time>
      </trkpt>
      <trkpt lat="48.5535" lon="-3.39849">
        <ele>89.9</ele>
        <time>2014-03-10T15:49:13Z</time>
      </trkpt>
      <trkpt lat="48.55341" lon="-3.39848">
        <ele>89.7</ele>
        <time>2014-03-10T15:49:21Z</time>
      </trkpt>
      <trkpt lat="48.55339" lon="-3.39831">
        <ele>89.6</ele>
        <time>2014-03-10T15:49:35Z</time>
      </trkpt>
      <trkpt lat="48.55343" lon="-3.39819">
        <ele>89.6</ele>
        <time>2014-03-10T15:49:44Z</time>
      </trkpt>
      <trkpt lat="48.55346" lon="-3.39805">
        <ele>89.2</ele>
        <time>2014-03-10T15:49:57Z</time>
      </trkpt>
      <trkpt lat="48.55341" lon="-3.39832">
        <ele>88</ele>
        <time>2014-03-10T15:51:24Z</time>
      </trkpt>
      <trkpt lat="48.55326" lon="-3.3984">
        <ele>89.3</ele>
        <time>2014-03-10T15:51:38Z</time>
      </trkpt>
      <trkpt lat="48.55315" lon="-3.39838">
        <ele>88.9</ele>
        <time>2014-03-10T15:51:46Z</time>
      </trkpt>
      <trkpt lat="48.55305" lon="-3.39835">
        <ele>89.3</ele>
        <time>2014-03-10T15:51:53Z</time>
      </trkpt>
      <trkpt lat="48.55295" lon="-3.39831">
        <ele>89.3</ele>
        <time>2014-03-10T15:51:59Z</time>
      </trkpt>
      <trkpt lat="48.55285" lon="-3.39819">
        <ele>89</ele>
        <time>2014-03-10T15:52:12Z</time>
      </trkpt>
      <trkpt lat="48.55275" lon="-3.39806">
        <ele>88</ele>
        <time>2014-03-10T15:52:25Z</time>
      </trkpt>
      <trkpt lat="48.55266" lon="-3.3979">
        <ele>88.3</ele>
        <time>2014-03-10T15:53:02Z</time>
      </trkpt>
      <trkpt lat="48.55261" lon="-3.39773">
        <ele>88.4</ele>
        <time>2014-03-10T15:53:15Z</time>
      </trkpt>
      <trkpt lat="48.55251" lon="-3.39759">
        <ele>89</ele>
        <time>2014-03-10T15:53:28Z</time>
      </trkpt>
      <trkpt lat="48.55241" lon="-3.39752">
        <ele>89.5</ele>
        <time>2014-03-10T15:53:37Z</time>
      </trkpt>
      <trkpt lat="48.55233" lon="-3.3974">
        <ele>89.8</ele>
        <time>2014-03-10T15:53:49Z</time>
      </trkpt>
      <trkpt lat="48.55225" lon="-3.39731">
        <ele>89.6</ele>
        <time>2014-03-10T15:53:58Z</time>
      </trkpt>
      <trkpt lat="48.55219" lon="-3.39721">
        <ele>89.9</ele>
        <time>2014-03-10T15:54:06Z</time>
      </trkpt>
      <trkpt lat="48.55209" lon="-3.39716">
        <ele>90.4</ele>
        <time>2014-03-10T15:54:12Z</time>
      </trkpt>
      <trkpt lat="48.55197" lon="-3.39707">
        <ele>89.2</ele>
        <time>2014-03-10T15:54:24Z</time>
      </trkpt>
      <trkpt lat="48.55184" lon="-3.39701">
        <ele>88.7</ele>
        <time>2014-03-10T15:54:33Z</time>
      </trkpt>
      <trkpt lat="48.55179" lon="-3.39686">
        <ele>89.6</ele>
        <time>2014-03-10T15:54:41Z</time>
      </trkpt>
      <trkpt lat="48.55172" lon="-3.39676">
        <ele>90.3</ele>
        <time>2014-03-10T15:54:47Z</time>
      </trkpt>
      <trkpt lat="48.55164" lon="-3.39666">
        <ele>88.9</ele>
        <time>2014-03-10T15:54:59Z</time>
      </trkpt>
      <trkpt lat="48.55156" lon="-3.39657">
        <ele>88.7</ele>
        <time>2014-03-10T15:55:08Z</time>
      </trkpt>
      <trkpt lat="48.55149" lon="-3.3964">
        <ele>88.5</ele>
        <time>2014-03-10T15:55:22Z</time>
      </trkpt>
      <trkpt lat="48.55141" lon="-3.39633">
        <ele>89.8</ele>
        <time>2014-03-10T15:55:33Z</time>
      </trkpt>
      <trkpt lat="48.55129" lon="-3.39635">
        <ele>89.4</ele>
        <time>2014-03-10T15:55:45Z</time>
      </trkpt>
      <trkpt lat="48.5512" lon="-3.39639">
        <ele>88.5</ele>
        <time>2014-03-10T15:55:55Z</time>
      </trkpt>
      <trkpt lat="48.5511" lon="-3.39643">
        <ele>88.3</ele>
        <time>2014-03-10T15:56:01Z</time>
      </trkpt>
      <trkpt lat="48.55094" lon="-3.3965">
        <ele>90.1</ele>
        <time>2014-03-10T15:56:08Z</time>
      </trkpt>
      <trkpt lat="48.55076" lon="-3.39659">
        <ele>90</ele>
        <time>2014-03-10T15:56:14Z</time>
      </trkpt>
      <trkpt lat="48.55066" lon="-3.39663">
        <ele>91.3</ele>
        <time>2014-03-10T15:56:21Z</time>
      </trkpt>
      <trkpt lat="48.55053" lon="-3.39662">
        <ele>90.7</ele>
        <time>2014-03-10T15:56:35Z</time>
      </trkpt>
      <trkpt lat="48.55045" lon="-3.39668">
        <ele>90.7</ele>
        <time>2014-03-10T15:56:41Z</time>
      </trkpt>
      <trkpt lat="48.55036" lon="-3.39658">
        <ele>91.1</ele>
        <time>2014-03-10T15:56:50Z</time>
      </trkpt>
      <trkpt lat="48.55028" lon="-3.39651">
        <ele>90.5</ele>
        <time>2014-03-10T15:57:14Z</time>
      </trkpt>
      <trkpt lat="48.55022" lon="-3.39661">
        <ele>89.8</ele>
        <time>2014-03-10T15:57:21Z</time>
      </trkpt>
      <trkpt lat="48.55012" lon="-3.39672">
        <ele>90.5</ele>
        <time>2014-03-10T15:57:29Z</time>
      </trkpt>
      <trkpt lat="48.55005" lon="-3.39681">
        <ele>89.8</ele>
        <time>2014-03-10T15:57:35Z</time>
      </trkpt>
      <trkpt lat="48.54996" lon="-3.39693">
        <ele>89.4</ele>
        <time>2014-03-10T15:57:44Z</time>
      </trkpt>
      <trkpt lat="48.54986" lon="-3.39704">
        <ele>90.4</ele>
        <time>2014-03-10T15:57:52Z</time>
      </trkpt>
      <trkpt lat="48.54979" lon="-3.39714">
        <ele>90.4</ele>
        <time>2014-03-10T15:57:59Z</time>
      </trkpt>
      <trkpt lat="48.54969" lon="-3.39731">
        <ele>90.2</ele>
        <time>2014-03-10T15:58:11Z</time>
      </trkpt>
      <trkpt lat="48.54959" lon="-3.39739">
        <ele>89.9</ele>
        <time>2014-03-10T15:58:19Z</time>
      </trkpt>
      <trkpt lat="48.54949" lon="-3.39747">
        <ele>90</ele>
        <time>2014-03-10T15:58:27Z</time>
      </trkpt>
      <trkpt lat="48.5494" lon="-3.39752">
        <ele>89</ele>
        <time>2014-03-10T15:58:35Z</time>
      </trkpt>
      <trkpt lat="48.5493" lon="-3.39756">
        <ele>88.6</ele>
        <time>2014-03-10T15:58:44Z</time>
      </trkpt>
      <trkpt lat="48.54917" lon="-3.39762">
        <ele>88.7</ele>
        <time>2014-03-10T15:58:55Z</time>
      </trkpt>
      <trkpt lat="48.54907" lon="-3.3976">
        <ele>88</ele>
        <time>2014-03-10T15:59:03Z</time>
      </trkpt>
      <trkpt lat="48.54904" lon="-3.39748">
        <ele>87.2</ele>
        <time>2014-03-10T15:59:15Z</time>
      </trkpt>
      <trkpt lat="48.54899" lon="-3.39733">
        <ele>86.5</ele>
        <time>2014-03-10T15:59:27Z</time>
      </trkpt>
      <trkpt lat="48.54895" lon="-3.39714">
        <ele>86</ele>
        <time>2014-03-10T15:59:40Z</time>
      </trkpt>
      <trkpt lat="48.54887" lon="-3.39703">
        <ele>85</ele>
        <time>2014-03-10T16:00:12Z</time>
      </trkpt>
      <trkpt lat="48.54882" lon="-3.39689">
        <ele>85.1</ele>
        <time>2014-03-10T16:00:20Z</time>
      </trkpt>
      <trkpt lat="48.54875" lon="-3.39675">
        <ele>85.4</ele>
        <time>2014-03-10T16:00:31Z</time>
      </trkpt>
      <trkpt lat="48.54866" lon="-3.39661">
        <ele>85.1</ele>
        <time>2014-03-10T16:00:44Z</time>
      </trkpt>
      <trkpt lat="48.54856" lon="-3.39663">
        <ele>84.8</ele>
        <time>2014-03-10T16:00:53Z</time>
      </trkpt>
      <trkpt lat="48.54843" lon="-3.39668">
        <ele>84.2</ele>
        <time>2014-03-10T16:01:04Z</time>
      </trkpt>
      <trkpt lat="48.54833" lon="-3.39671">
        <ele>84.1</ele>
        <time>2014-03-10T16:01:13Z</time>
      </trkpt>
      <trkpt lat="48.54821" lon="-3.39675">
        <ele>83.4</ele>
        <time>2014-03-10T16:01:25Z</time>
      </trkpt>
      <trkpt lat="48.54809" lon="-3.39677">
        <ele>83.8</ele>
        <time>2014-03-10T16:01:38Z</time>
      </trkpt>
      <trkpt lat="48.548" lon="-3.39679">
        <ele>84.7</ele>
        <time>2014-03-10T16:01:46Z</time>
      </trkpt>
      <trkpt lat="48.5479" lon="-3.39679">
        <ele>83.9</ele>
        <time>2014-03-10T16:01:54Z</time>
      </trkpt>
      <trkpt lat="48.54779" lon="-3.39676">
        <ele>85.7</ele>
        <time>2014-03-10T16:02:35Z</time>
      </trkpt>
      <trkpt lat="48.54769" lon="-3.39682">
        <ele>83.9</ele>
        <time>2014-03-10T16:03:23Z</time>
      </trkpt>
      <trkpt lat="48.54759" lon="-3.39688">
        <ele>83.2</ele>
        <time>2014-03-10T16:03:37Z</time>
      </trkpt>
      <trkpt lat="48.54749" lon="-3.39694">
        <ele>82.9</ele>
        <time>2014-03-10T16:03:46Z</time>
      </trkpt>
      <trkpt lat="48.54738" lon="-3.39695">
        <ele>83</ele>
        <time>2014-03-10T16:03:57Z</time>
      </trkpt>
      <trkpt lat="48.54728" lon="-3.39692">
        <ele>83.4</ele>
        <time>2014-03-10T16:04:05Z</time>
      </trkpt>
      <trkpt lat="48.54718" lon="-3.3969">
        <ele>83.3</ele>
        <time>2014-03-10T16:04:13Z</time>
      </trkpt>
      <trkpt lat="48.5471" lon="-3.39686">
        <ele>83.1</ele>
        <time>2014-03-10T16:04:20Z</time>
      </trkpt>
      <trkpt lat="48.54696" lon="-3.39682">
        <ele>82.5</ele>
        <time>2014-03-10T16:04:30Z</time>
      </trkpt>
      <trkpt lat="48.54686" lon="-3.39682">
        <ele>83.3</ele>
        <time>2014-03-10T16:04:37Z</time>
      </trkpt>
      <trkpt lat="48.54674" lon="-3.39681">
        <ele>83.8</ele>
        <time>2014-03-10T16:04:45Z</time>
      </trkpt>
      <trkpt lat="48.54665" lon="-3.39677">
        <ele>83.1</ele>
        <time>2014-03-10T16:04:52Z</time>
      </trkpt>
      <trkpt lat="48.54656" lon="-3.39672">
        <ele>83.2</ele>
        <time>2014-03-10T16:05:00Z</time>
      </trkpt>
      <trkpt lat="48.54644" lon="-3.39659">
        <ele>83.9</ele>
        <time>2014-03-10T16:05:13Z</time>
      </trkpt>
      <trkpt lat="48.54639" lon="-3.39644">
        <ele>83.2</ele>
        <time>2014-03-10T16:05:21Z</time>
      </trkpt>
      <trkpt lat="48.54635" lon="-3.39631">
        <ele>83.9</ele>
        <time>2014-03-10T16:05:29Z</time>
      </trkpt>
      <trkpt lat="48.54629" lon="-3.39619">
        <ele>84.1</ele>
        <time>2014-03-10T16:05:37Z</time>
      </trkpt>
      <trkpt lat="48.54621" lon="-3.39602">
        <ele>84.1</ele>
        <time>2014-03-10T16:05:49Z</time>
      </trkpt>
      <trkpt lat="48.54616" lon="-3.3959">
        <ele>84.1</ele>
        <time>2014-03-10T16:05:57Z</time>
      </trkpt>
      <trkpt lat="48.54609" lon="-3.39579">
        <ele>83.2</ele>
        <time>2014-03-10T16:06:08Z</time>
      </trkpt>
      <trkpt lat="48.54602" lon="-3.39588">
        <ele>84.8</ele>
        <time>2014-03-10T16:06:33Z</time>
      </trkpt>
      <trkpt lat="48.54596" lon="-3.396">
        <ele>84.4</ele>
        <time>2014-03-10T16:06:39Z</time>
      </trkpt>
      <trkpt lat="48.54588" lon="-3.39614">
        <ele>84.8</ele>
        <time>2014-03-10T16:06:46Z</time>
      </trkpt>
      <trkpt lat="48.54584" lon="-3.3962">
        <ele>84.4</ele>
        <time>2014-03-10T16:06:50Z</time>
      </trkpt>
      <trkpt lat="48.54588" lon="-3.39614">
        <ele>84.7</ele>
        <time>2014-03-10T16:06:46Z</time>
      </trkpt>
      <trkpt lat="48.54578" lon="-3.39623">
        <ele>84.1</ele>
        <time>2014-03-10T16:06:57Z</time>
      </trkpt>
      <trkpt lat="48.54578" lon="-3.39623">
        <ele>84.1</ele>
        <time>2014-03-10T16:06:57Z</time>
      </trkpt>
      <trkpt lat="48.54578" lon="-3.39623">
        <ele>84.1</ele>
        <time>2014-03-10T16:06:57Z</time>
      </trkpt>
    </trkseg>
  </trk>
</gpx>